<?xml version="1.0" encoding="UTF-8" standalone="no" ?>
<gpx xmlns="http://www.topografix.com/GPX/1/1" xmlns:xsi="http://www.w3.org/2001/XMLSchema-instance" xsi:schemaLocation="http://www.topografix.com/GPX/1/1 http://www.topografix.com/GPX/1/1/gpx.xsd" version="1.1" creator="VisuGPX - https://www.visugpx.com">
  <metadata>
    <name>Découvrir la campagne à Cahors, Les Junies</name>
    <desc><![CDATA[Circuit varié offrant des perspectives sur la campagne à proximité de la ville.]]></desc>
  </metadata>
  <trk>
    <name><![CDATA[Les Junies]]></name>
    <trkseg>
      <trkpt lat="44.44035" lon="1.38945">
        <ele>266</ele>
        <time>2018-11-25T13:11:32Z</time>
      </trkpt>
      <trkpt lat="44.44024" lon="1.38945">
        <ele>264.1</ele>
        <time>2018-11-25T13:12:09Z</time>
      </trkpt>
      <trkpt lat="44.44013" lon="1.3894">
        <ele>262.8</ele>
        <time>2018-11-25T13:12:12Z</time>
      </trkpt>
      <trkpt lat="44.4399" lon="1.38927">
        <ele>262</ele>
        <time>2018-11-25T13:12:27Z</time>
      </trkpt>
      <trkpt lat="44.43983" lon="1.38925">
        <ele>261.8</ele>
        <time>2018-11-25T13:12:30Z</time>
      </trkpt>
      <trkpt lat="44.43978" lon="1.38924">
        <ele>262.1</ele>
        <time>2018-11-25T13:12:33Z</time>
      </trkpt>
      <trkpt lat="44.43973" lon="1.3893">
        <ele>262.6</ele>
        <time>2018-11-25T13:12:36Z</time>
      </trkpt>
      <trkpt lat="44.43965" lon="1.38931">
        <ele>263.3</ele>
        <time>2018-11-25T13:12:45Z</time>
      </trkpt>
      <trkpt lat="44.43961" lon="1.38924">
        <ele>264.2</ele>
        <time>2018-11-25T13:12:51Z</time>
      </trkpt>
      <trkpt lat="44.43956" lon="1.38924">
        <ele>265.5</ele>
        <time>2018-11-25T13:12:54Z</time>
      </trkpt>
      <trkpt lat="44.4395" lon="1.38927">
        <ele>267.3</ele>
        <time>2018-11-25T13:13:03Z</time>
      </trkpt>
      <trkpt lat="44.43947" lon="1.38921">
        <ele>269.8</ele>
        <time>2018-11-25T13:13:06Z</time>
      </trkpt>
      <trkpt lat="44.4394" lon="1.38919">
        <ele>272.7</ele>
        <time>2018-11-25T13:13:09Z</time>
      </trkpt>
      <trkpt lat="44.43931" lon="1.38917">
        <ele>275.8</ele>
        <time>2018-11-25T13:13:12Z</time>
      </trkpt>
      <trkpt lat="44.43923" lon="1.38917">
        <ele>278.7</ele>
        <time>2018-11-25T13:13:15Z</time>
      </trkpt>
      <trkpt lat="44.43912" lon="1.38913">
        <ele>281</ele>
        <time>2018-11-25T13:13:21Z</time>
      </trkpt>
      <trkpt lat="44.43907" lon="1.38917">
        <ele>282.3</ele>
        <time>2018-11-25T13:13:24Z</time>
      </trkpt>
      <trkpt lat="44.43901" lon="1.38906">
        <ele>282.8</ele>
        <time>2018-11-25T13:13:36Z</time>
      </trkpt>
      <trkpt lat="44.43894" lon="1.38902">
        <ele>282.4</ele>
        <time>2018-11-25T13:13:42Z</time>
      </trkpt>
      <trkpt lat="44.43886" lon="1.38902">
        <ele>281.6</ele>
        <time>2018-11-25T13:13:48Z</time>
      </trkpt>
      <trkpt lat="44.4388" lon="1.38903">
        <ele>280.6</ele>
        <time>2018-11-25T13:13:54Z</time>
      </trkpt>
      <trkpt lat="44.4388" lon="1.38914">
        <ele>279.6</ele>
        <time>2018-11-25T13:13:57Z</time>
      </trkpt>
      <trkpt lat="44.4388" lon="1.3892">
        <ele>278.8</ele>
        <time>2018-11-25T13:14:00Z</time>
      </trkpt>
      <trkpt lat="44.43873" lon="1.38914">
        <ele>277.9</ele>
        <time>2018-11-25T13:14:06Z</time>
      </trkpt>
      <trkpt lat="44.43869" lon="1.3891">
        <ele>276.8</ele>
        <time>2018-11-25T13:14:18Z</time>
      </trkpt>
      <trkpt lat="44.43867" lon="1.38902">
        <ele>275.5</ele>
        <time>2018-11-25T13:14:21Z</time>
      </trkpt>
      <trkpt lat="44.43859" lon="1.38903">
        <ele>273.9</ele>
        <time>2018-11-25T13:14:27Z</time>
      </trkpt>
      <trkpt lat="44.43854" lon="1.389">
        <ele>271.9</ele>
        <time>2018-11-25T13:14:30Z</time>
      </trkpt>
      <trkpt lat="44.43847" lon="1.38899">
        <ele>269.8</ele>
        <time>2018-11-25T13:14:33Z</time>
      </trkpt>
      <trkpt lat="44.43841" lon="1.38896">
        <ele>267.6</ele>
        <time>2018-11-25T13:14:39Z</time>
      </trkpt>
      <trkpt lat="44.4384" lon="1.38886">
        <ele>265.4</ele>
        <time>2018-11-25T13:14:42Z</time>
      </trkpt>
      <trkpt lat="44.43839" lon="1.38878">
        <ele>263.3</ele>
        <time>2018-11-25T13:14:45Z</time>
      </trkpt>
      <trkpt lat="44.43832" lon="1.38872">
        <ele>261.4</ele>
        <time>2018-11-25T13:14:48Z</time>
      </trkpt>
      <trkpt lat="44.43826" lon="1.38871">
        <ele>260</ele>
        <time>2018-11-25T13:14:51Z</time>
      </trkpt>
      <trkpt lat="44.43822" lon="1.38869">
        <ele>259.1</ele>
        <time>2018-11-25T13:14:57Z</time>
      </trkpt>
      <trkpt lat="44.43817" lon="1.38867">
        <ele>258.8</ele>
        <time>2018-11-25T13:15:00Z</time>
      </trkpt>
      <trkpt lat="44.43813" lon="1.38864">
        <ele>259.1</ele>
        <time>2018-11-25T13:15:03Z</time>
      </trkpt>
      <trkpt lat="44.43807" lon="1.38869">
        <ele>259.7</ele>
        <time>2018-11-25T13:15:06Z</time>
      </trkpt>
      <trkpt lat="44.438" lon="1.38855">
        <ele>260.6</ele>
        <time>2018-11-25T13:15:12Z</time>
      </trkpt>
      <trkpt lat="44.43801" lon="1.38847">
        <ele>261.5</ele>
        <time>2018-11-25T13:15:15Z</time>
      </trkpt>
      <trkpt lat="44.43796" lon="1.3884">
        <ele>262.1</ele>
        <time>2018-11-25T13:15:18Z</time>
      </trkpt>
      <trkpt lat="44.43789" lon="1.38835">
        <ele>262.6</ele>
        <time>2018-11-25T13:15:24Z</time>
      </trkpt>
      <trkpt lat="44.43783" lon="1.38832">
        <ele>262.7</ele>
        <time>2018-11-25T13:15:27Z</time>
      </trkpt>
      <trkpt lat="44.43777" lon="1.38825">
        <ele>262.7</ele>
        <time>2018-11-25T13:15:33Z</time>
      </trkpt>
      <trkpt lat="44.4377" lon="1.38828">
        <ele>262.6</ele>
        <time>2018-11-25T13:15:39Z</time>
      </trkpt>
      <trkpt lat="44.43761" lon="1.38832">
        <ele>262.7</ele>
        <time>2018-11-25T13:15:45Z</time>
      </trkpt>
      <trkpt lat="44.43756" lon="1.38826">
        <ele>263</ele>
        <time>2018-11-25T13:15:48Z</time>
      </trkpt>
      <trkpt lat="44.43751" lon="1.38821">
        <ele>263.4</ele>
        <time>2018-11-25T13:15:51Z</time>
      </trkpt>
      <trkpt lat="44.43743" lon="1.38812">
        <ele>263.7</ele>
        <time>2018-11-25T13:15:57Z</time>
      </trkpt>
      <trkpt lat="44.43737" lon="1.38812">
        <ele>263.7</ele>
        <time>2018-11-25T13:16:00Z</time>
      </trkpt>
      <trkpt lat="44.43731" lon="1.38808">
        <ele>263.2</ele>
        <time>2018-11-25T13:16:03Z</time>
      </trkpt>
      <trkpt lat="44.43731" lon="1.38795">
        <ele>262.2</ele>
        <time>2018-11-25T13:16:09Z</time>
      </trkpt>
      <trkpt lat="44.43729" lon="1.38801">
        <ele>260.9</ele>
        <time>2018-11-25T13:16:15Z</time>
      </trkpt>
      <trkpt lat="44.43715" lon="1.38795">
        <ele>259.5</ele>
        <time>2018-11-25T13:16:21Z</time>
      </trkpt>
      <trkpt lat="44.43709" lon="1.38789">
        <ele>258.4</ele>
        <time>2018-11-25T13:16:27Z</time>
      </trkpt>
      <trkpt lat="44.43706" lon="1.38784">
        <ele>257.8</ele>
        <time>2018-11-25T13:16:32Z</time>
      </trkpt>
      <trkpt lat="44.43706" lon="1.38777">
        <ele>257.7</ele>
        <time>2018-11-25T13:16:36Z</time>
      </trkpt>
      <trkpt lat="44.43703" lon="1.38772">
        <ele>258.1</ele>
        <time>2018-11-25T13:16:45Z</time>
      </trkpt>
      <trkpt lat="44.43707" lon="1.38785">
        <ele>258.6</ele>
        <time>2018-11-25T13:16:48Z</time>
      </trkpt>
      <trkpt lat="44.43696" lon="1.3878">
        <ele>259.1</ele>
        <time>2018-11-25T13:16:54Z</time>
      </trkpt>
      <trkpt lat="44.43701" lon="1.38783">
        <ele>259.2</ele>
        <time>2018-11-25T13:16:57Z</time>
      </trkpt>
      <trkpt lat="44.43696" lon="1.38776">
        <ele>259</ele>
        <time>2018-11-25T13:17:00Z</time>
      </trkpt>
      <trkpt lat="44.4369" lon="1.3877">
        <ele>258.4</ele>
        <time>2018-11-25T13:17:03Z</time>
      </trkpt>
      <trkpt lat="44.43683" lon="1.38769">
        <ele>257.8</ele>
        <time>2018-11-25T13:17:06Z</time>
      </trkpt>
      <trkpt lat="44.43679" lon="1.38759">
        <ele>257.3</ele>
        <time>2018-11-25T13:17:09Z</time>
      </trkpt>
      <trkpt lat="44.43675" lon="1.38747">
        <ele>257.1</ele>
        <time>2018-11-25T13:17:12Z</time>
      </trkpt>
      <trkpt lat="44.43669" lon="1.38743">
        <ele>257.4</ele>
        <time>2018-11-25T13:17:15Z</time>
      </trkpt>
      <trkpt lat="44.43671" lon="1.38734">
        <ele>258.1</ele>
        <time>2018-11-25T13:17:18Z</time>
      </trkpt>
      <trkpt lat="44.43667" lon="1.38727">
        <ele>259.1</ele>
        <time>2018-11-25T13:17:21Z</time>
      </trkpt>
      <trkpt lat="44.43663" lon="1.38721">
        <ele>260.2</ele>
        <time>2018-11-25T13:17:24Z</time>
      </trkpt>
      <trkpt lat="44.43656" lon="1.38714">
        <ele>261.5</ele>
        <time>2018-11-25T13:17:30Z</time>
      </trkpt>
      <trkpt lat="44.43647" lon="1.38711">
        <ele>262.7</ele>
        <time>2018-11-25T13:17:39Z</time>
      </trkpt>
      <trkpt lat="44.43641" lon="1.38708">
        <ele>263.9</ele>
        <time>2018-11-25T13:17:42Z</time>
      </trkpt>
      <trkpt lat="44.43636" lon="1.38702">
        <ele>265.2</ele>
        <time>2018-11-25T13:17:45Z</time>
      </trkpt>
      <trkpt lat="44.43627" lon="1.38699">
        <ele>266.6</ele>
        <time>2018-11-25T13:17:51Z</time>
      </trkpt>
      <trkpt lat="44.4362" lon="1.38697">
        <ele>268.2</ele>
        <time>2018-11-25T13:17:57Z</time>
      </trkpt>
      <trkpt lat="44.43614" lon="1.3869">
        <ele>269.9</ele>
        <time>2018-11-25T13:18:03Z</time>
      </trkpt>
      <trkpt lat="44.43607" lon="1.38684">
        <ele>271.9</ele>
        <time>2018-11-25T13:18:09Z</time>
      </trkpt>
      <trkpt lat="44.43608" lon="1.38675">
        <ele>274.1</ele>
        <time>2018-11-25T13:18:15Z</time>
      </trkpt>
      <trkpt lat="44.43606" lon="1.38669">
        <ele>276.3</ele>
        <time>2018-11-25T13:18:18Z</time>
      </trkpt>
      <trkpt lat="44.43602" lon="1.38665">
        <ele>278.4</ele>
        <time>2018-11-25T13:18:21Z</time>
      </trkpt>
      <trkpt lat="44.43597" lon="1.38663">
        <ele>280.1</ele>
        <time>2018-11-25T13:18:24Z</time>
      </trkpt>
      <trkpt lat="44.43591" lon="1.38661">
        <ele>281.1</ele>
        <time>2018-11-25T13:18:30Z</time>
      </trkpt>
      <trkpt lat="44.43588" lon="1.38656">
        <ele>280.9</ele>
        <time>2018-11-25T13:18:33Z</time>
      </trkpt>
      <trkpt lat="44.43588" lon="1.38648">
        <ele>279.6</ele>
        <time>2018-11-25T13:18:36Z</time>
      </trkpt>
      <trkpt lat="44.43585" lon="1.38636">
        <ele>277.1</ele>
        <time>2018-11-25T13:18:39Z</time>
      </trkpt>
      <trkpt lat="44.43579" lon="1.38634">
        <ele>273.6</ele>
        <time>2018-11-25T13:18:42Z</time>
      </trkpt>
      <trkpt lat="44.43576" lon="1.38628">
        <ele>269.7</ele>
        <time>2018-11-25T13:18:48Z</time>
      </trkpt>
      <trkpt lat="44.43579" lon="1.38637">
        <ele>265.8</ele>
        <time>2018-11-25T13:18:51Z</time>
      </trkpt>
      <trkpt lat="44.4357" lon="1.38624">
        <ele>262.5</ele>
        <time>2018-11-25T13:19:00Z</time>
      </trkpt>
      <trkpt lat="44.43564" lon="1.38613">
        <ele>260.1</ele>
        <time>2018-11-25T13:19:03Z</time>
      </trkpt>
      <trkpt lat="44.43561" lon="1.38608">
        <ele>258.9</ele>
        <time>2018-11-25T13:19:12Z</time>
      </trkpt>
      <trkpt lat="44.43556" lon="1.38607">
        <ele>258.9</ele>
        <time>2018-11-25T13:19:18Z</time>
      </trkpt>
      <trkpt lat="44.43558" lon="1.38615">
        <ele>260</ele>
        <time>2018-11-25T13:19:21Z</time>
      </trkpt>
      <trkpt lat="44.4355" lon="1.38607">
        <ele>261.9</ele>
        <time>2018-11-25T13:19:33Z</time>
      </trkpt>
      <trkpt lat="44.43545" lon="1.38595">
        <ele>264.3</ele>
        <time>2018-11-25T13:19:36Z</time>
      </trkpt>
      <trkpt lat="44.43543" lon="1.38586">
        <ele>266.8</ele>
        <time>2018-11-25T13:19:39Z</time>
      </trkpt>
      <trkpt lat="44.4354" lon="1.3858">
        <ele>268.9</ele>
        <time>2018-11-25T13:19:42Z</time>
      </trkpt>
      <trkpt lat="44.43539" lon="1.38571">
        <ele>270.5</ele>
        <time>2018-11-25T13:19:45Z</time>
      </trkpt>
      <trkpt lat="44.43539" lon="1.38557">
        <ele>271.3</ele>
        <time>2018-11-25T13:19:51Z</time>
      </trkpt>
      <trkpt lat="44.43533" lon="1.38551">
        <ele>271.5</ele>
        <time>2018-11-25T13:19:54Z</time>
      </trkpt>
      <trkpt lat="44.43524" lon="1.38543">
        <ele>271.4</ele>
        <time>2018-11-25T13:20:03Z</time>
      </trkpt>
      <trkpt lat="44.43518" lon="1.38537">
        <ele>271.3</ele>
        <time>2018-11-25T13:20:09Z</time>
      </trkpt>
      <trkpt lat="44.43514" lon="1.38529">
        <ele>271.6</ele>
        <time>2018-11-25T13:20:12Z</time>
      </trkpt>
      <trkpt lat="44.43507" lon="1.38521">
        <ele>272.3</ele>
        <time>2018-11-25T13:20:18Z</time>
      </trkpt>
      <trkpt lat="44.43498" lon="1.3851">
        <ele>273.5</ele>
        <time>2018-11-25T13:20:24Z</time>
      </trkpt>
      <trkpt lat="44.43494" lon="1.38505">
        <ele>275</ele>
        <time>2018-11-25T13:20:26Z</time>
      </trkpt>
      <trkpt lat="44.43497" lon="1.38496">
        <ele>276.3</ele>
        <time>2018-11-25T13:20:30Z</time>
      </trkpt>
      <trkpt lat="44.43494" lon="1.38488">
        <ele>277.2</ele>
        <time>2018-11-25T13:20:36Z</time>
      </trkpt>
      <trkpt lat="44.43489" lon="1.38483">
        <ele>277.5</ele>
        <time>2018-11-25T13:20:42Z</time>
      </trkpt>
      <trkpt lat="44.43484" lon="1.38477">
        <ele>277.1</ele>
        <time>2018-11-25T13:20:45Z</time>
      </trkpt>
      <trkpt lat="44.43489" lon="1.38462">
        <ele>276.1</ele>
        <time>2018-11-25T13:20:57Z</time>
      </trkpt>
      <trkpt lat="44.43494" lon="1.38451">
        <ele>274.7</ele>
        <time>2018-11-25T13:21:03Z</time>
      </trkpt>
      <trkpt lat="44.4349" lon="1.38447">
        <ele>272.9</ele>
        <time>2018-11-25T13:21:06Z</time>
      </trkpt>
      <trkpt lat="44.43495" lon="1.38441">
        <ele>271</ele>
        <time>2018-11-25T13:21:12Z</time>
      </trkpt>
      <trkpt lat="44.43502" lon="1.3844">
        <ele>269</ele>
        <time>2018-11-25T13:21:15Z</time>
      </trkpt>
      <trkpt lat="44.43503" lon="1.38425">
        <ele>266.8</ele>
        <time>2018-11-25T13:21:27Z</time>
      </trkpt>
      <trkpt lat="44.43504" lon="1.38417">
        <ele>264.6</ele>
        <time>2018-11-25T13:21:35Z</time>
      </trkpt>
      <trkpt lat="44.43506" lon="1.38404">
        <ele>262.4</ele>
        <time>2018-11-25T13:21:47Z</time>
      </trkpt>
      <trkpt lat="44.43514" lon="1.38396">
        <ele>260</ele>
        <time>2018-11-25T13:21:53Z</time>
      </trkpt>
      <trkpt lat="44.43517" lon="1.38391">
        <ele>257.7</ele>
        <time>2018-11-25T13:21:58Z</time>
      </trkpt>
      <trkpt lat="44.43521" lon="1.38387">
        <ele>255.6</ele>
        <time>2018-11-25T13:22:04Z</time>
      </trkpt>
      <trkpt lat="44.43521" lon="1.38378">
        <ele>253.8</ele>
        <time>2018-11-25T13:22:12Z</time>
      </trkpt>
      <trkpt lat="44.43525" lon="1.3837">
        <ele>252.6</ele>
        <time>2018-11-25T13:22:17Z</time>
      </trkpt>
      <trkpt lat="44.4353" lon="1.38365">
        <ele>252.1</ele>
        <time>2018-11-25T13:22:32Z</time>
      </trkpt>
      <trkpt lat="44.43535" lon="1.38363">
        <ele>252.2</ele>
        <time>2018-11-25T13:22:42Z</time>
      </trkpt>
      <trkpt lat="44.43539" lon="1.38359">
        <ele>253.1</ele>
        <time>2018-11-25T13:22:44Z</time>
      </trkpt>
      <trkpt lat="44.43538" lon="1.38351">
        <ele>254.2</ele>
        <time>2018-11-25T13:22:47Z</time>
      </trkpt>
      <trkpt lat="44.43539" lon="1.38342">
        <ele>255.5</ele>
        <time>2018-11-25T13:22:57Z</time>
      </trkpt>
      <trkpt lat="44.43544" lon="1.38337">
        <ele>256.6</ele>
        <time>2018-11-25T13:23:01Z</time>
      </trkpt>
      <trkpt lat="44.43548" lon="1.38332">
        <ele>257.3</ele>
        <time>2018-11-25T13:23:05Z</time>
      </trkpt>
      <trkpt lat="44.43559" lon="1.38317">
        <ele>257.4</ele>
        <time>2018-11-25T13:23:11Z</time>
      </trkpt>
      <trkpt lat="44.43563" lon="1.38312">
        <ele>257</ele>
        <time>2018-11-25T13:23:13Z</time>
      </trkpt>
      <trkpt lat="44.43573" lon="1.38304">
        <ele>256.1</ele>
        <time>2018-11-25T13:23:17Z</time>
      </trkpt>
      <trkpt lat="44.43577" lon="1.38302">
        <ele>254.6</ele>
        <time>2018-11-25T13:23:26Z</time>
      </trkpt>
      <trkpt lat="44.43582" lon="1.38299">
        <ele>252.6</ele>
        <time>2018-11-25T13:23:37Z</time>
      </trkpt>
      <trkpt lat="44.43581" lon="1.38293">
        <ele>250.2</ele>
        <time>2018-11-25T13:23:43Z</time>
      </trkpt>
      <trkpt lat="44.43586" lon="1.38273">
        <ele>247.6</ele>
        <time>2018-11-25T13:23:50Z</time>
      </trkpt>
      <trkpt lat="44.43588" lon="1.38266">
        <ele>245</ele>
        <time>2018-11-25T13:23:52Z</time>
      </trkpt>
      <trkpt lat="44.43584" lon="1.38254">
        <ele>242.4</ele>
        <time>2018-11-25T13:23:56Z</time>
      </trkpt>
      <trkpt lat="44.43584" lon="1.38246">
        <ele>240.2</ele>
        <time>2018-11-25T13:24:01Z</time>
      </trkpt>
      <trkpt lat="44.43589" lon="1.38251">
        <ele>238.4</ele>
        <time>2018-11-25T13:24:08Z</time>
      </trkpt>
      <trkpt lat="44.4359" lon="1.38241">
        <ele>237.2</ele>
        <time>2018-11-25T13:24:14Z</time>
      </trkpt>
      <trkpt lat="44.43591" lon="1.38224">
        <ele>236.4</ele>
        <time>2018-11-25T13:24:29Z</time>
      </trkpt>
      <trkpt lat="44.43593" lon="1.38217">
        <ele>235.9</ele>
        <time>2018-11-25T13:24:35Z</time>
      </trkpt>
      <trkpt lat="44.43594" lon="1.38207">
        <ele>235.5</ele>
        <time>2018-11-25T13:24:50Z</time>
      </trkpt>
      <trkpt lat="44.43595" lon="1.38199">
        <ele>235</ele>
        <time>2018-11-25T13:24:56Z</time>
      </trkpt>
      <trkpt lat="44.43596" lon="1.38191">
        <ele>234.4</ele>
        <time>2018-11-25T13:25:06Z</time>
      </trkpt>
      <trkpt lat="44.43597" lon="1.38185">
        <ele>233.7</ele>
        <time>2018-11-25T13:25:08Z</time>
      </trkpt>
      <trkpt lat="44.43597" lon="1.38173">
        <ele>233</ele>
        <time>2018-11-25T13:25:14Z</time>
      </trkpt>
      <trkpt lat="44.43596" lon="1.38159">
        <ele>232.5</ele>
        <time>2018-11-25T13:25:17Z</time>
      </trkpt>
      <trkpt lat="44.43597" lon="1.3815">
        <ele>232.2</ele>
        <time>2018-11-25T13:25:20Z</time>
      </trkpt>
      <trkpt lat="44.436" lon="1.38145">
        <ele>232.2</ele>
        <time>2018-11-25T13:25:35Z</time>
      </trkpt>
      <trkpt lat="44.436" lon="1.38134">
        <ele>232.4</ele>
        <time>2018-11-25T13:25:38Z</time>
      </trkpt>
      <trkpt lat="44.43599" lon="1.38127">
        <ele>232.5</ele>
        <time>2018-11-25T13:25:44Z</time>
      </trkpt>
      <trkpt lat="44.436" lon="1.38117">
        <ele>232.5</ele>
        <time>2018-11-25T13:25:54Z</time>
      </trkpt>
      <trkpt lat="44.43599" lon="1.38109">
        <ele>232.1</ele>
        <time>2018-11-25T13:25:59Z</time>
      </trkpt>
      <trkpt lat="44.43602" lon="1.38095">
        <ele>231.6</ele>
        <time>2018-11-25T13:26:11Z</time>
      </trkpt>
      <trkpt lat="44.43607" lon="1.3808">
        <ele>230.9</ele>
        <time>2018-11-25T13:26:17Z</time>
      </trkpt>
      <trkpt lat="44.43608" lon="1.3807">
        <ele>230.3</ele>
        <time>2018-11-25T13:26:20Z</time>
      </trkpt>
      <trkpt lat="44.43605" lon="1.38057">
        <ele>229.7</ele>
        <time>2018-11-25T13:26:23Z</time>
      </trkpt>
      <trkpt lat="44.43605" lon="1.3805">
        <ele>229.1</ele>
        <time>2018-11-25T13:26:26Z</time>
      </trkpt>
      <trkpt lat="44.43605" lon="1.3804">
        <ele>228.4</ele>
        <time>2018-11-25T13:26:29Z</time>
      </trkpt>
      <trkpt lat="44.43607" lon="1.3803">
        <ele>227.5</ele>
        <time>2018-11-25T13:26:35Z</time>
      </trkpt>
      <trkpt lat="44.43602" lon="1.38017">
        <ele>226.5</ele>
        <time>2018-11-25T13:26:41Z</time>
      </trkpt>
      <trkpt lat="44.43597" lon="1.38013">
        <ele>225.3</ele>
        <time>2018-11-25T13:26:47Z</time>
      </trkpt>
      <trkpt lat="44.43598" lon="1.38003">
        <ele>224.2</ele>
        <time>2018-11-25T13:26:53Z</time>
      </trkpt>
      <trkpt lat="44.43597" lon="1.37996">
        <ele>223.3</ele>
        <time>2018-11-25T13:27:05Z</time>
      </trkpt>
      <trkpt lat="44.43593" lon="1.37991">
        <ele>222.6</ele>
        <time>2018-11-25T13:27:11Z</time>
      </trkpt>
      <trkpt lat="44.43587" lon="1.37992">
        <ele>222</ele>
        <time>2018-11-25T13:27:16Z</time>
      </trkpt>
      <trkpt lat="44.43583" lon="1.37999">
        <ele>221.3</ele>
        <time>2018-11-25T13:27:23Z</time>
      </trkpt>
      <trkpt lat="44.43579" lon="1.37997">
        <ele>220.3</ele>
        <time>2018-11-25T13:27:31Z</time>
      </trkpt>
      <trkpt lat="44.43571" lon="1.38">
        <ele>219.1</ele>
        <time>2018-11-25T13:27:38Z</time>
      </trkpt>
      <trkpt lat="44.43571" lon="1.37994">
        <ele>217.7</ele>
        <time>2018-11-25T13:27:52Z</time>
      </trkpt>
      <trkpt lat="44.43564" lon="1.37996">
        <ele>216.3</ele>
        <time>2018-11-25T13:27:56Z</time>
      </trkpt>
      <trkpt lat="44.43557" lon="1.38002">
        <ele>215.4</ele>
        <time>2018-11-25T13:28:02Z</time>
      </trkpt>
      <trkpt lat="44.43552" lon="1.38002">
        <ele>215</ele>
        <time>2018-11-25T13:28:05Z</time>
      </trkpt>
      <trkpt lat="44.43553" lon="1.37995">
        <ele>215.2</ele>
        <time>2018-11-25T13:28:21Z</time>
      </trkpt>
      <trkpt lat="44.43549" lon="1.37992">
        <ele>215.9</ele>
        <time>2018-11-25T13:28:25Z</time>
      </trkpt>
      <trkpt lat="44.43545" lon="1.37984">
        <ele>217</ele>
        <time>2018-11-25T13:28:51Z</time>
      </trkpt>
      <trkpt lat="44.43542" lon="1.37979">
        <ele>218.2</ele>
        <time>2018-11-25T13:29:05Z</time>
      </trkpt>
      <trkpt lat="44.43538" lon="1.37969">
        <ele>219.2</ele>
        <time>2018-11-25T13:29:20Z</time>
      </trkpt>
      <trkpt lat="44.43534" lon="1.3796">
        <ele>219.9</ele>
        <time>2018-11-25T13:29:23Z</time>
      </trkpt>
      <trkpt lat="44.43527" lon="1.37947">
        <ele>220</ele>
        <time>2018-11-25T13:29:29Z</time>
      </trkpt>
      <trkpt lat="44.43522" lon="1.37932">
        <ele>219.4</ele>
        <time>2018-11-25T13:29:32Z</time>
      </trkpt>
      <trkpt lat="44.43524" lon="1.37922">
        <ele>218.1</ele>
        <time>2018-11-25T13:29:38Z</time>
      </trkpt>
      <trkpt lat="44.43522" lon="1.37909">
        <ele>216.4</ele>
        <time>2018-11-25T13:29:41Z</time>
      </trkpt>
      <trkpt lat="44.43518" lon="1.37903">
        <ele>214.3</ele>
        <time>2018-11-25T13:29:47Z</time>
      </trkpt>
      <trkpt lat="44.43516" lon="1.37897">
        <ele>211.9</ele>
        <time>2018-11-25T13:29:53Z</time>
      </trkpt>
      <trkpt lat="44.43514" lon="1.37888">
        <ele>209.4</ele>
        <time>2018-11-25T13:29:59Z</time>
      </trkpt>
      <trkpt lat="44.43515" lon="1.37882">
        <ele>207.2</ele>
        <time>2018-11-25T13:30:07Z</time>
      </trkpt>
      <trkpt lat="44.43507" lon="1.37873">
        <ele>205.1</ele>
        <time>2018-11-25T13:30:11Z</time>
      </trkpt>
      <trkpt lat="44.43505" lon="1.37866">
        <ele>203.6</ele>
        <time>2018-11-25T13:30:26Z</time>
      </trkpt>
      <trkpt lat="44.43504" lon="1.37859">
        <ele>202.8</ele>
        <time>2018-11-25T13:30:45Z</time>
      </trkpt>
      <trkpt lat="44.43503" lon="1.37848">
        <ele>202.4</ele>
        <time>2018-11-25T13:30:54Z</time>
      </trkpt>
      <trkpt lat="44.43495" lon="1.37828">
        <ele>202.4</ele>
        <time>2018-11-25T13:30:59Z</time>
      </trkpt>
      <trkpt lat="44.43494" lon="1.37819">
        <ele>202.5</ele>
        <time>2018-11-25T13:31:05Z</time>
      </trkpt>
      <trkpt lat="44.43494" lon="1.37809">
        <ele>202.3</ele>
        <time>2018-11-25T13:31:08Z</time>
      </trkpt>
      <trkpt lat="44.43498" lon="1.378">
        <ele>201.8</ele>
        <time>2018-11-25T13:31:14Z</time>
      </trkpt>
      <trkpt lat="44.43493" lon="1.37791">
        <ele>200.7</ele>
        <time>2018-11-25T13:31:17Z</time>
      </trkpt>
      <trkpt lat="44.43497" lon="1.37799">
        <ele>199.3</ele>
        <time>2018-11-25T13:31:26Z</time>
      </trkpt>
      <trkpt lat="44.43499" lon="1.37791">
        <ele>197.8</ele>
        <time>2018-11-25T13:31:32Z</time>
      </trkpt>
      <trkpt lat="44.43496" lon="1.37775">
        <ele>196.2</ele>
        <time>2018-11-25T13:31:35Z</time>
      </trkpt>
      <trkpt lat="44.43495" lon="1.37764">
        <ele>194.8</ele>
        <time>2018-11-25T13:31:38Z</time>
      </trkpt>
      <trkpt lat="44.43499" lon="1.37753">
        <ele>193.7</ele>
        <time>2018-11-25T13:31:41Z</time>
      </trkpt>
      <trkpt lat="44.43496" lon="1.37745">
        <ele>192.8</ele>
        <time>2018-11-25T13:31:44Z</time>
      </trkpt>
      <trkpt lat="44.43498" lon="1.37738">
        <ele>192</ele>
        <time>2018-11-25T13:31:47Z</time>
      </trkpt>
      <trkpt lat="44.43495" lon="1.3773">
        <ele>191.3</ele>
        <time>2018-11-25T13:31:56Z</time>
      </trkpt>
      <trkpt lat="44.43496" lon="1.37714">
        <ele>190.7</ele>
        <time>2018-11-25T13:32:20Z</time>
      </trkpt>
      <trkpt lat="44.43498" lon="1.377">
        <ele>190.1</ele>
        <time>2018-11-25T13:32:26Z</time>
      </trkpt>
      <trkpt lat="44.43504" lon="1.3769">
        <ele>189.6</ele>
        <time>2018-11-25T13:32:32Z</time>
      </trkpt>
      <trkpt lat="44.4351" lon="1.37678">
        <ele>189.3</ele>
        <time>2018-11-25T13:32:38Z</time>
      </trkpt>
      <trkpt lat="44.43513" lon="1.3767">
        <ele>189</ele>
        <time>2018-11-25T13:32:41Z</time>
      </trkpt>
      <trkpt lat="44.43511" lon="1.37658">
        <ele>188.9</ele>
        <time>2018-11-25T13:32:50Z</time>
      </trkpt>
      <trkpt lat="44.43512" lon="1.37648">
        <ele>188.8</ele>
        <time>2018-11-25T13:32:56Z</time>
      </trkpt>
      <trkpt lat="44.43514" lon="1.37642">
        <ele>188.5</ele>
        <time>2018-11-25T13:32:59Z</time>
      </trkpt>
      <trkpt lat="44.43515" lon="1.37636">
        <ele>188.1</ele>
        <time>2018-11-25T13:33:02Z</time>
      </trkpt>
      <trkpt lat="44.43518" lon="1.37624">
        <ele>187.4</ele>
        <time>2018-11-25T13:33:08Z</time>
      </trkpt>
      <trkpt lat="44.4352" lon="1.37615">
        <ele>186.5</ele>
        <time>2018-11-25T13:33:14Z</time>
      </trkpt>
      <trkpt lat="44.43522" lon="1.37608">
        <ele>185.5</ele>
        <time>2018-11-25T13:33:19Z</time>
      </trkpt>
      <trkpt lat="44.43526" lon="1.37604">
        <ele>184.5</ele>
        <time>2018-11-25T13:33:25Z</time>
      </trkpt>
      <trkpt lat="44.43529" lon="1.37596">
        <ele>183.7</ele>
        <time>2018-11-25T13:33:29Z</time>
      </trkpt>
      <trkpt lat="44.43529" lon="1.37588">
        <ele>183.1</ele>
        <time>2018-11-25T13:33:32Z</time>
      </trkpt>
      <trkpt lat="44.43531" lon="1.3758">
        <ele>182.9</ele>
        <time>2018-11-25T13:33:38Z</time>
      </trkpt>
      <trkpt lat="44.43536" lon="1.37579">
        <ele>182.8</ele>
        <time>2018-11-25T13:33:44Z</time>
      </trkpt>
      <trkpt lat="44.43545" lon="1.37574">
        <ele>182.9</ele>
        <time>2018-11-25T13:33:50Z</time>
      </trkpt>
      <trkpt lat="44.43554" lon="1.37576">
        <ele>182.9</ele>
        <time>2018-11-25T13:33:56Z</time>
      </trkpt>
      <trkpt lat="44.43563" lon="1.37575">
        <ele>182.9</ele>
        <time>2018-11-25T13:34:02Z</time>
      </trkpt>
      <trkpt lat="44.43564" lon="1.37566">
        <ele>182.7</ele>
        <time>2018-11-25T13:34:08Z</time>
      </trkpt>
      <trkpt lat="44.43557" lon="1.37562">
        <ele>182.4</ele>
        <time>2018-11-25T13:34:11Z</time>
      </trkpt>
      <trkpt lat="44.43561" lon="1.37556">
        <ele>182</ele>
        <time>2018-11-25T13:34:14Z</time>
      </trkpt>
      <trkpt lat="44.43568" lon="1.37551">
        <ele>181.5</ele>
        <time>2018-11-25T13:34:20Z</time>
      </trkpt>
      <trkpt lat="44.43577" lon="1.37543">
        <ele>181.1</ele>
        <time>2018-11-25T13:34:26Z</time>
      </trkpt>
      <trkpt lat="44.43578" lon="1.37531">
        <ele>180.7</ele>
        <time>2018-11-25T13:34:29Z</time>
      </trkpt>
      <trkpt lat="44.43579" lon="1.37522">
        <ele>180.3</ele>
        <time>2018-11-25T13:34:35Z</time>
      </trkpt>
      <trkpt lat="44.43586" lon="1.37515">
        <ele>180</ele>
        <time>2018-11-25T13:34:44Z</time>
      </trkpt>
      <trkpt lat="44.43589" lon="1.37507">
        <ele>179.8</ele>
        <time>2018-11-25T13:34:50Z</time>
      </trkpt>
      <trkpt lat="44.43585" lon="1.37488">
        <ele>179.8</ele>
        <time>2018-11-25T13:34:53Z</time>
      </trkpt>
      <trkpt lat="44.43581" lon="1.37485">
        <ele>179.8</ele>
        <time>2018-11-25T13:34:56Z</time>
      </trkpt>
      <trkpt lat="44.43583" lon="1.37479">
        <ele>179.9</ele>
        <time>2018-11-25T13:34:59Z</time>
      </trkpt>
      <trkpt lat="44.43591" lon="1.37487">
        <ele>179.9</ele>
        <time>2018-11-25T13:35:02Z</time>
      </trkpt>
      <trkpt lat="44.4359" lon="1.37477">
        <ele>179.9</ele>
        <time>2018-11-25T13:35:14Z</time>
      </trkpt>
      <trkpt lat="44.4359" lon="1.37469">
        <ele>179.8</ele>
        <time>2018-11-25T13:35:20Z</time>
      </trkpt>
      <trkpt lat="44.43581" lon="1.3747">
        <ele>179.9</ele>
        <time>2018-11-25T13:35:26Z</time>
      </trkpt>
      <trkpt lat="44.43585" lon="1.37458">
        <ele>180.3</ele>
        <time>2018-11-25T13:35:29Z</time>
      </trkpt>
      <trkpt lat="44.43587" lon="1.3745">
        <ele>181</ele>
        <time>2018-11-25T13:35:38Z</time>
      </trkpt>
      <trkpt lat="44.4359" lon="1.37435">
        <ele>182.1</ele>
        <time>2018-11-25T13:35:44Z</time>
      </trkpt>
      <trkpt lat="44.43588" lon="1.37423">
        <ele>183.2</ele>
        <time>2018-11-25T13:35:50Z</time>
      </trkpt>
      <trkpt lat="44.43586" lon="1.37408">
        <ele>184.1</ele>
        <time>2018-11-25T13:35:56Z</time>
      </trkpt>
      <trkpt lat="44.43588" lon="1.37422">
        <ele>184.6</ele>
        <time>2018-11-25T13:36:05Z</time>
      </trkpt>
      <trkpt lat="44.43589" lon="1.37411">
        <ele>184.4</ele>
        <time>2018-11-25T13:36:20Z</time>
      </trkpt>
      <trkpt lat="44.43586" lon="1.37392">
        <ele>183.3</ele>
        <time>2018-11-25T13:36:26Z</time>
      </trkpt>
      <trkpt lat="44.43582" lon="1.37366">
        <ele>181.5</ele>
        <time>2018-11-25T13:36:32Z</time>
      </trkpt>
      <trkpt lat="44.43587" lon="1.37359">
        <ele>179.2</ele>
        <time>2018-11-25T13:36:38Z</time>
      </trkpt>
      <trkpt lat="44.4359" lon="1.37366">
        <ele>176.5</ele>
        <time>2018-11-25T13:36:41Z</time>
      </trkpt>
      <trkpt lat="44.43583" lon="1.37359">
        <ele>173.9</ele>
        <time>2018-11-25T13:36:47Z</time>
      </trkpt>
      <trkpt lat="44.43582" lon="1.37353">
        <ele>171.8</ele>
        <time>2018-11-25T13:36:55Z</time>
      </trkpt>
      <trkpt lat="44.43584" lon="1.37347">
        <ele>170.3</ele>
        <time>2018-11-25T13:37:05Z</time>
      </trkpt>
      <trkpt lat="44.43571" lon="1.37346">
        <ele>169.5</ele>
        <time>2018-11-25T13:37:17Z</time>
      </trkpt>
      <trkpt lat="44.43559" lon="1.3735">
        <ele>169.2</ele>
        <time>2018-11-25T13:37:23Z</time>
      </trkpt>
      <trkpt lat="44.43555" lon="1.37359">
        <ele>169.4</ele>
        <time>2018-11-25T13:37:29Z</time>
      </trkpt>
      <trkpt lat="44.43551" lon="1.37368">
        <ele>169.9</ele>
        <time>2018-11-25T13:37:35Z</time>
      </trkpt>
      <trkpt lat="44.43555" lon="1.37374">
        <ele>170.6</ele>
        <time>2018-11-25T13:37:47Z</time>
      </trkpt>
      <trkpt lat="44.43552" lon="1.37381">
        <ele>171.5</ele>
        <time>2018-11-25T13:37:50Z</time>
      </trkpt>
      <trkpt lat="44.43542" lon="1.37388">
        <ele>172.7</ele>
        <time>2018-11-25T13:38:08Z</time>
      </trkpt>
      <trkpt lat="44.43534" lon="1.37391">
        <ele>173.8</ele>
        <time>2018-11-25T13:38:14Z</time>
      </trkpt>
      <trkpt lat="44.43532" lon="1.37381">
        <ele>175</ele>
        <time>2018-11-25T13:38:20Z</time>
      </trkpt>
      <trkpt lat="44.43528" lon="1.37377">
        <ele>175.9</ele>
        <time>2018-11-25T13:38:29Z</time>
      </trkpt>
      <trkpt lat="44.43522" lon="1.37381">
        <ele>176.3</ele>
        <time>2018-11-25T13:38:32Z</time>
      </trkpt>
      <trkpt lat="44.43518" lon="1.37388">
        <ele>176.2</ele>
        <time>2018-11-25T13:38:35Z</time>
      </trkpt>
      <trkpt lat="44.43512" lon="1.37392">
        <ele>175.7</ele>
        <time>2018-11-25T13:38:38Z</time>
      </trkpt>
      <trkpt lat="44.43509" lon="1.37387">
        <ele>175</ele>
        <time>2018-11-25T13:38:41Z</time>
      </trkpt>
      <trkpt lat="44.43505" lon="1.37393">
        <ele>174.3</ele>
        <time>2018-11-25T13:38:47Z</time>
      </trkpt>
      <trkpt lat="44.43499" lon="1.37397">
        <ele>174</ele>
        <time>2018-11-25T13:38:50Z</time>
      </trkpt>
      <trkpt lat="44.43494" lon="1.37398">
        <ele>174.2</ele>
        <time>2018-11-25T13:38:53Z</time>
      </trkpt>
      <trkpt lat="44.43486" lon="1.37404">
        <ele>175</ele>
        <time>2018-11-25T13:38:59Z</time>
      </trkpt>
      <trkpt lat="44.43481" lon="1.374">
        <ele>176.2</ele>
        <time>2018-11-25T13:39:07Z</time>
      </trkpt>
      <trkpt lat="44.43475" lon="1.374">
        <ele>177.7</ele>
        <time>2018-11-25T13:39:17Z</time>
      </trkpt>
      <trkpt lat="44.4347" lon="1.37399">
        <ele>179.2</ele>
        <time>2018-11-25T13:39:22Z</time>
      </trkpt>
      <trkpt lat="44.43465" lon="1.37401">
        <ele>180.5</ele>
        <time>2018-11-25T13:39:26Z</time>
      </trkpt>
      <trkpt lat="44.43458" lon="1.3741">
        <ele>181.3</ele>
        <time>2018-11-25T13:39:32Z</time>
      </trkpt>
      <trkpt lat="44.43452" lon="1.37421">
        <ele>181.7</ele>
        <time>2018-11-25T13:39:38Z</time>
      </trkpt>
      <trkpt lat="44.43448" lon="1.37416">
        <ele>181.7</ele>
        <time>2018-11-25T13:39:46Z</time>
      </trkpt>
      <trkpt lat="44.43441" lon="1.37423">
        <ele>181.5</ele>
        <time>2018-11-25T13:39:59Z</time>
      </trkpt>
      <trkpt lat="44.43434" lon="1.37426">
        <ele>181.2</ele>
        <time>2018-11-25T13:40:05Z</time>
      </trkpt>
      <trkpt lat="44.43428" lon="1.37429">
        <ele>181.1</ele>
        <time>2018-11-25T13:40:11Z</time>
      </trkpt>
      <trkpt lat="44.4342" lon="1.37425">
        <ele>181.1</ele>
        <time>2018-11-25T13:40:23Z</time>
      </trkpt>
      <trkpt lat="44.4341" lon="1.37422">
        <ele>181.4</ele>
        <time>2018-11-25T13:40:35Z</time>
      </trkpt>
      <trkpt lat="44.43402" lon="1.37428">
        <ele>181.9</ele>
        <time>2018-11-25T13:40:41Z</time>
      </trkpt>
      <trkpt lat="44.43388" lon="1.37441">
        <ele>182.6</ele>
        <time>2018-11-25T13:40:56Z</time>
      </trkpt>
      <trkpt lat="44.43384" lon="1.37438">
        <ele>183.3</ele>
        <time>2018-11-25T13:40:59Z</time>
      </trkpt>
      <trkpt lat="44.43375" lon="1.37437">
        <ele>184</ele>
        <time>2018-11-25T13:41:08Z</time>
      </trkpt>
      <trkpt lat="44.43367" lon="1.37447">
        <ele>184.5</ele>
        <time>2018-11-25T13:41:11Z</time>
      </trkpt>
      <trkpt lat="44.43362" lon="1.37448">
        <ele>184.8</ele>
        <time>2018-11-25T13:41:23Z</time>
      </trkpt>
      <trkpt lat="44.43359" lon="1.37454">
        <ele>185.2</ele>
        <time>2018-11-25T13:41:33Z</time>
      </trkpt>
      <trkpt lat="44.43358" lon="1.37463">
        <ele>185.5</ele>
        <time>2018-11-25T13:41:38Z</time>
      </trkpt>
      <trkpt lat="44.43352" lon="1.37462">
        <ele>185.9</ele>
        <time>2018-11-25T13:41:44Z</time>
      </trkpt>
      <trkpt lat="44.43348" lon="1.37467">
        <ele>186.2</ele>
        <time>2018-11-25T13:41:50Z</time>
      </trkpt>
      <trkpt lat="44.43349" lon="1.37457">
        <ele>186.3</ele>
        <time>2018-11-25T13:41:56Z</time>
      </trkpt>
      <trkpt lat="44.4334" lon="1.3746">
        <ele>186.1</ele>
        <time>2018-11-25T13:42:02Z</time>
      </trkpt>
      <trkpt lat="44.43338" lon="1.37466">
        <ele>185.5</ele>
        <time>2018-11-25T13:42:07Z</time>
      </trkpt>
      <trkpt lat="44.43333" lon="1.37467">
        <ele>184.3</ele>
        <time>2018-11-25T13:42:13Z</time>
      </trkpt>
      <trkpt lat="44.43327" lon="1.37468">
        <ele>182.7</ele>
        <time>2018-11-25T13:42:22Z</time>
      </trkpt>
      <trkpt lat="44.43321" lon="1.37476">
        <ele>180.8</ele>
        <time>2018-11-25T13:42:26Z</time>
      </trkpt>
      <trkpt lat="44.43312" lon="1.37482">
        <ele>178.8</ele>
        <time>2018-11-25T13:42:36Z</time>
      </trkpt>
      <trkpt lat="44.43306" lon="1.37487">
        <ele>176.8</ele>
        <time>2018-11-25T13:42:45Z</time>
      </trkpt>
      <trkpt lat="44.43304" lon="1.37495">
        <ele>175.1</ele>
        <time>2018-11-25T13:42:50Z</time>
      </trkpt>
      <trkpt lat="44.43299" lon="1.37495">
        <ele>173.5</ele>
        <time>2018-11-25T13:42:53Z</time>
      </trkpt>
      <trkpt lat="44.43293" lon="1.37494">
        <ele>172.2</ele>
        <time>2018-11-25T13:43:02Z</time>
      </trkpt>
      <trkpt lat="44.43287" lon="1.37497">
        <ele>171.2</ele>
        <time>2018-11-25T13:43:36Z</time>
      </trkpt>
      <trkpt lat="44.43281" lon="1.37502">
        <ele>170.3</ele>
        <time>2018-11-25T13:43:38Z</time>
      </trkpt>
      <trkpt lat="44.43276" lon="1.37511">
        <ele>169.7</ele>
        <time>2018-11-25T13:43:44Z</time>
      </trkpt>
      <trkpt lat="44.43265" lon="1.37515">
        <ele>169.4</ele>
        <time>2018-11-25T13:43:50Z</time>
      </trkpt>
      <trkpt lat="44.4326" lon="1.37514">
        <ele>169.3</ele>
        <time>2018-11-25T13:43:56Z</time>
      </trkpt>
      <trkpt lat="44.43252" lon="1.37526">
        <ele>169.4</ele>
        <time>2018-11-25T13:44:02Z</time>
      </trkpt>
      <trkpt lat="44.43244" lon="1.37528">
        <ele>169.5</ele>
        <time>2018-11-25T13:44:08Z</time>
      </trkpt>
      <trkpt lat="44.43243" lon="1.37536">
        <ele>169.7</ele>
        <time>2018-11-25T13:44:14Z</time>
      </trkpt>
      <trkpt lat="44.43241" lon="1.37546">
        <ele>169.8</ele>
        <time>2018-11-25T13:44:20Z</time>
      </trkpt>
      <trkpt lat="44.43232" lon="1.37547">
        <ele>169.9</ele>
        <time>2018-11-25T13:44:26Z</time>
      </trkpt>
      <trkpt lat="44.43227" lon="1.37546">
        <ele>170</ele>
        <time>2018-11-25T13:44:29Z</time>
      </trkpt>
      <trkpt lat="44.43222" lon="1.37544">
        <ele>170.4</ele>
        <time>2018-11-25T13:44:35Z</time>
      </trkpt>
      <trkpt lat="44.43214" lon="1.37544">
        <ele>171</ele>
        <time>2018-11-25T13:44:41Z</time>
      </trkpt>
      <trkpt lat="44.43207" lon="1.37546">
        <ele>171.9</ele>
        <time>2018-11-25T13:44:59Z</time>
      </trkpt>
      <trkpt lat="44.432" lon="1.37548">
        <ele>173.2</ele>
        <time>2018-11-25T13:45:05Z</time>
      </trkpt>
      <trkpt lat="44.43199" lon="1.37554">
        <ele>174.6</ele>
        <time>2018-11-25T13:45:08Z</time>
      </trkpt>
      <trkpt lat="44.43202" lon="1.37547">
        <ele>176.1</ele>
        <time>2018-11-25T13:45:11Z</time>
      </trkpt>
      <trkpt lat="44.43196" lon="1.37557">
        <ele>177.6</ele>
        <time>2018-11-25T13:45:23Z</time>
      </trkpt>
      <trkpt lat="44.43195" lon="1.37567">
        <ele>179</ele>
        <time>2018-11-25T13:45:29Z</time>
      </trkpt>
      <trkpt lat="44.43192" lon="1.37574">
        <ele>180.4</ele>
        <time>2018-11-25T13:45:32Z</time>
      </trkpt>
      <trkpt lat="44.43183" lon="1.37585">
        <ele>181.6</ele>
        <time>2018-11-25T13:45:38Z</time>
      </trkpt>
      <trkpt lat="44.43188" lon="1.37591">
        <ele>182.8</ele>
        <time>2018-11-25T13:45:44Z</time>
      </trkpt>
      <trkpt lat="44.43185" lon="1.37604">
        <ele>183.8</ele>
        <time>2018-11-25T13:45:50Z</time>
      </trkpt>
      <trkpt lat="44.43177" lon="1.37611">
        <ele>184.8</ele>
        <time>2018-11-25T13:45:53Z</time>
      </trkpt>
      <trkpt lat="44.43169" lon="1.37612">
        <ele>185.7</ele>
        <time>2018-11-25T13:46:02Z</time>
      </trkpt>
      <trkpt lat="44.43165" lon="1.37618">
        <ele>186.4</ele>
        <time>2018-11-25T13:46:08Z</time>
      </trkpt>
      <trkpt lat="44.43163" lon="1.37628">
        <ele>187</ele>
        <time>2018-11-25T13:46:17Z</time>
      </trkpt>
      <trkpt lat="44.43164" lon="1.37639">
        <ele>187.3</ele>
        <time>2018-11-25T13:46:26Z</time>
      </trkpt>
      <trkpt lat="44.43164" lon="1.37649">
        <ele>187.3</ele>
        <time>2018-11-25T13:46:35Z</time>
      </trkpt>
      <trkpt lat="44.43163" lon="1.37657">
        <ele>187.4</ele>
        <time>2018-11-25T13:46:41Z</time>
      </trkpt>
      <trkpt lat="44.43162" lon="1.37671">
        <ele>187.6</ele>
        <time>2018-11-25T13:46:50Z</time>
      </trkpt>
      <trkpt lat="44.43163" lon="1.37682">
        <ele>188.3</ele>
        <time>2018-11-25T13:47:02Z</time>
      </trkpt>
      <trkpt lat="44.43159" lon="1.37671">
        <ele>189.5</ele>
        <time>2018-11-25T13:47:14Z</time>
      </trkpt>
      <trkpt lat="44.43156" lon="1.37666">
        <ele>191.1</ele>
        <time>2018-11-25T13:47:19Z</time>
      </trkpt>
      <trkpt lat="44.4316" lon="1.37673">
        <ele>192.8</ele>
        <time>2018-11-25T13:48:12Z</time>
      </trkpt>
      <trkpt lat="44.43157" lon="1.37678">
        <ele>194.3</ele>
        <time>2018-11-25T13:48:22Z</time>
      </trkpt>
      <trkpt lat="44.4316" lon="1.37674">
        <ele>195.3</ele>
        <time>2018-11-25T13:49:32Z</time>
      </trkpt>
      <trkpt lat="44.43156" lon="1.37671">
        <ele>195.7</ele>
        <time>2018-11-25T13:50:16Z</time>
      </trkpt>
      <trkpt lat="44.4315" lon="1.37675">
        <ele>195.9</ele>
        <time>2018-11-25T13:50:24Z</time>
      </trkpt>
      <trkpt lat="44.43143" lon="1.37682">
        <ele>195.9</ele>
        <time>2018-11-25T13:50:30Z</time>
      </trkpt>
      <trkpt lat="44.43139" lon="1.37686">
        <ele>196</ele>
        <time>2018-11-25T13:50:36Z</time>
      </trkpt>
      <trkpt lat="44.43134" lon="1.37688">
        <ele>196.2</ele>
        <time>2018-11-25T13:50:55Z</time>
      </trkpt>
      <trkpt lat="44.43136" lon="1.37696">
        <ele>196.5</ele>
        <time>2018-11-25T13:51:10Z</time>
      </trkpt>
      <trkpt lat="44.43136" lon="1.37703">
        <ele>196.8</ele>
        <time>2018-11-25T13:51:15Z</time>
      </trkpt>
      <trkpt lat="44.43133" lon="1.3771">
        <ele>197.1</ele>
        <time>2018-11-25T13:51:21Z</time>
      </trkpt>
      <trkpt lat="44.4313" lon="1.37717">
        <ele>197.3</ele>
        <time>2018-11-25T13:51:27Z</time>
      </trkpt>
      <trkpt lat="44.4313" lon="1.37725">
        <ele>197.5</ele>
        <time>2018-11-25T13:51:33Z</time>
      </trkpt>
      <trkpt lat="44.43135" lon="1.37741">
        <ele>197.8</ele>
        <time>2018-11-25T13:51:39Z</time>
      </trkpt>
      <trkpt lat="44.43136" lon="1.37748">
        <ele>197.9</ele>
        <time>2018-11-25T13:51:48Z</time>
      </trkpt>
      <trkpt lat="44.43133" lon="1.37758">
        <ele>198</ele>
        <time>2018-11-25T13:51:54Z</time>
      </trkpt>
      <trkpt lat="44.4313" lon="1.37763">
        <ele>197.9</ele>
        <time>2018-11-25T13:52:10Z</time>
      </trkpt>
      <trkpt lat="44.43129" lon="1.37771">
        <ele>197.8</ele>
        <time>2018-11-25T13:52:15Z</time>
      </trkpt>
      <trkpt lat="44.43121" lon="1.37786">
        <ele>197.6</ele>
        <time>2018-11-25T13:52:18Z</time>
      </trkpt>
      <trkpt lat="44.43115" lon="1.37796">
        <ele>197.4</ele>
        <time>2018-11-25T13:52:21Z</time>
      </trkpt>
      <trkpt lat="44.4312" lon="1.37804">
        <ele>197.4</ele>
        <time>2018-11-25T13:52:40Z</time>
      </trkpt>
      <trkpt lat="44.43124" lon="1.37808">
        <ele>197.7</ele>
        <time>2018-11-25T13:52:42Z</time>
      </trkpt>
      <trkpt lat="44.43121" lon="1.37814">
        <ele>198</ele>
        <time>2018-11-25T13:52:45Z</time>
      </trkpt>
      <trkpt lat="44.4312" lon="1.37825">
        <ele>198.6</ele>
        <time>2018-11-25T13:52:58Z</time>
      </trkpt>
      <trkpt lat="44.43116" lon="1.37831">
        <ele>199.2</ele>
        <time>2018-11-25T13:53:02Z</time>
      </trkpt>
      <trkpt lat="44.43115" lon="1.37839">
        <ele>200</ele>
        <time>2018-11-25T13:53:06Z</time>
      </trkpt>
      <trkpt lat="44.43115" lon="1.37847">
        <ele>200.8</ele>
        <time>2018-11-25T13:53:09Z</time>
      </trkpt>
      <trkpt lat="44.43118" lon="1.37854">
        <ele>201.6</ele>
        <time>2018-11-25T13:53:12Z</time>
      </trkpt>
      <trkpt lat="44.43118" lon="1.37867">
        <ele>202.4</ele>
        <time>2018-11-25T13:53:21Z</time>
      </trkpt>
      <trkpt lat="44.43118" lon="1.37873">
        <ele>202.7</ele>
        <time>2018-11-25T13:53:27Z</time>
      </trkpt>
      <trkpt lat="44.43115" lon="1.37886">
        <ele>202.6</ele>
        <time>2018-11-25T13:53:33Z</time>
      </trkpt>
      <trkpt lat="44.43112" lon="1.37891">
        <ele>201.9</ele>
        <time>2018-11-25T13:53:41Z</time>
      </trkpt>
      <trkpt lat="44.43121" lon="1.37897">
        <ele>200.8</ele>
        <time>2018-11-25T13:53:45Z</time>
      </trkpt>
      <trkpt lat="44.43118" lon="1.37908">
        <ele>199.5</ele>
        <time>2018-11-25T13:53:51Z</time>
      </trkpt>
      <trkpt lat="44.43112" lon="1.37914">
        <ele>198.4</ele>
        <time>2018-11-25T13:53:54Z</time>
      </trkpt>
      <trkpt lat="44.43107" lon="1.37921">
        <ele>197.8</ele>
        <time>2018-11-25T13:53:57Z</time>
      </trkpt>
      <trkpt lat="44.43107" lon="1.3793">
        <ele>197.6</ele>
        <time>2018-11-25T13:54:03Z</time>
      </trkpt>
      <trkpt lat="44.43103" lon="1.37937">
        <ele>197.9</ele>
        <time>2018-11-25T13:54:06Z</time>
      </trkpt>
      <trkpt lat="44.43102" lon="1.37944">
        <ele>198.3</ele>
        <time>2018-11-25T13:54:12Z</time>
      </trkpt>
      <trkpt lat="44.43099" lon="1.37951">
        <ele>198.6</ele>
        <time>2018-11-25T13:54:20Z</time>
      </trkpt>
      <trkpt lat="44.43098" lon="1.37961">
        <ele>198.6</ele>
        <time>2018-11-25T13:54:24Z</time>
      </trkpt>
      <trkpt lat="44.43098" lon="1.37969">
        <ele>198.1</ele>
        <time>2018-11-25T13:54:30Z</time>
      </trkpt>
      <trkpt lat="44.43096" lon="1.3798">
        <ele>197.4</ele>
        <time>2018-11-25T13:54:33Z</time>
      </trkpt>
      <trkpt lat="44.43094" lon="1.37987">
        <ele>196.7</ele>
        <time>2018-11-25T13:54:36Z</time>
      </trkpt>
      <trkpt lat="44.43089" lon="1.37992">
        <ele>196</ele>
        <time>2018-11-25T13:54:41Z</time>
      </trkpt>
      <trkpt lat="44.43086" lon="1.38006">
        <ele>195.6</ele>
        <time>2018-11-25T13:54:45Z</time>
      </trkpt>
      <trkpt lat="44.43084" lon="1.38014">
        <ele>195.6</ele>
        <time>2018-11-25T13:54:51Z</time>
      </trkpt>
      <trkpt lat="44.43084" lon="1.38028">
        <ele>195.8</ele>
        <time>2018-11-25T13:55:06Z</time>
      </trkpt>
      <trkpt lat="44.43075" lon="1.38038">
        <ele>195.9</ele>
        <time>2018-11-25T13:55:24Z</time>
      </trkpt>
      <trkpt lat="44.43071" lon="1.38044">
        <ele>195.8</ele>
        <time>2018-11-25T13:55:30Z</time>
      </trkpt>
      <trkpt lat="44.4307" lon="1.38051">
        <ele>195.3</ele>
        <time>2018-11-25T13:55:33Z</time>
      </trkpt>
      <trkpt lat="44.43066" lon="1.38062">
        <ele>194.3</ele>
        <time>2018-11-25T13:55:39Z</time>
      </trkpt>
      <trkpt lat="44.43059" lon="1.38065">
        <ele>193.2</ele>
        <time>2018-11-25T13:55:51Z</time>
      </trkpt>
      <trkpt lat="44.43051" lon="1.38074">
        <ele>192.1</ele>
        <time>2018-11-25T13:56:00Z</time>
      </trkpt>
      <trkpt lat="44.43045" lon="1.38081">
        <ele>191.4</ele>
        <time>2018-11-25T13:56:03Z</time>
      </trkpt>
      <trkpt lat="44.43039" lon="1.3809">
        <ele>191.3</ele>
        <time>2018-11-25T13:56:09Z</time>
      </trkpt>
      <trkpt lat="44.43035" lon="1.381">
        <ele>191.5</ele>
        <time>2018-11-25T13:56:15Z</time>
      </trkpt>
      <trkpt lat="44.4304" lon="1.38108">
        <ele>192.1</ele>
        <time>2018-11-25T13:56:18Z</time>
      </trkpt>
      <trkpt lat="44.43035" lon="1.38104">
        <ele>192.8</ele>
        <time>2018-11-25T13:56:27Z</time>
      </trkpt>
      <trkpt lat="44.43031" lon="1.3811">
        <ele>193.6</ele>
        <time>2018-11-25T13:56:30Z</time>
      </trkpt>
      <trkpt lat="44.43027" lon="1.38107">
        <ele>194.5</ele>
        <time>2018-11-25T13:56:33Z</time>
      </trkpt>
      <trkpt lat="44.43023" lon="1.38112">
        <ele>195.7</ele>
        <time>2018-11-25T13:56:39Z</time>
      </trkpt>
      <trkpt lat="44.4302" lon="1.38116">
        <ele>197.2</ele>
        <time>2018-11-25T13:56:45Z</time>
      </trkpt>
      <trkpt lat="44.43016" lon="1.38121">
        <ele>199.1</ele>
        <time>2018-11-25T13:56:51Z</time>
      </trkpt>
      <trkpt lat="44.43014" lon="1.38127">
        <ele>201.2</ele>
        <time>2018-11-25T13:57:01Z</time>
      </trkpt>
      <trkpt lat="44.4301" lon="1.38132">
        <ele>203.2</ele>
        <time>2018-11-25T13:57:16Z</time>
      </trkpt>
      <trkpt lat="44.43008" lon="1.3814">
        <ele>204.9</ele>
        <time>2018-11-25T13:57:18Z</time>
      </trkpt>
      <trkpt lat="44.43003" lon="1.38152">
        <ele>206.1</ele>
        <time>2018-11-25T13:57:24Z</time>
      </trkpt>
      <trkpt lat="44.43001" lon="1.38165">
        <ele>206.7</ele>
        <time>2018-11-25T13:57:27Z</time>
      </trkpt>
      <trkpt lat="44.43001" lon="1.38172">
        <ele>206.7</ele>
        <time>2018-11-25T13:57:30Z</time>
      </trkpt>
      <trkpt lat="44.43" lon="1.38179">
        <ele>206.3</ele>
        <time>2018-11-25T13:57:36Z</time>
      </trkpt>
      <trkpt lat="44.42997" lon="1.38187">
        <ele>205.8</ele>
        <time>2018-11-25T13:57:42Z</time>
      </trkpt>
      <trkpt lat="44.42996" lon="1.38199">
        <ele>205.5</ele>
        <time>2018-11-25T13:57:48Z</time>
      </trkpt>
      <trkpt lat="44.42994" lon="1.38207">
        <ele>205.5</ele>
        <time>2018-11-25T13:57:54Z</time>
      </trkpt>
      <trkpt lat="44.42991" lon="1.38216">
        <ele>205.9</ele>
        <time>2018-11-25T13:58:00Z</time>
      </trkpt>
      <trkpt lat="44.42989" lon="1.38222">
        <ele>206.5</ele>
        <time>2018-11-25T13:58:03Z</time>
      </trkpt>
      <trkpt lat="44.42992" lon="1.3821">
        <ele>206.9</ele>
        <time>2018-11-25T13:58:06Z</time>
      </trkpt>
      <trkpt lat="44.42993" lon="1.38222">
        <ele>206.9</ele>
        <time>2018-11-25T13:58:15Z</time>
      </trkpt>
      <trkpt lat="44.4299" lon="1.38233">
        <ele>206.2</ele>
        <time>2018-11-25T13:58:21Z</time>
      </trkpt>
      <trkpt lat="44.42992" lon="1.38244">
        <ele>204.7</ele>
        <time>2018-11-25T13:58:27Z</time>
      </trkpt>
      <trkpt lat="44.42991" lon="1.38253">
        <ele>202.9</ele>
        <time>2018-11-25T13:58:33Z</time>
      </trkpt>
      <trkpt lat="44.42987" lon="1.38261">
        <ele>200.9</ele>
        <time>2018-11-25T13:58:36Z</time>
      </trkpt>
      <trkpt lat="44.42983" lon="1.38272">
        <ele>199.4</ele>
        <time>2018-11-25T13:58:42Z</time>
      </trkpt>
      <trkpt lat="44.42982" lon="1.38279">
        <ele>198.5</ele>
        <time>2018-11-25T13:58:48Z</time>
      </trkpt>
      <trkpt lat="44.42984" lon="1.38286">
        <ele>198.3</ele>
        <time>2018-11-25T13:58:54Z</time>
      </trkpt>
      <trkpt lat="44.42994" lon="1.38269">
        <ele>198.7</ele>
        <time>2018-11-25T13:59:00Z</time>
      </trkpt>
      <trkpt lat="44.42992" lon="1.38276">
        <ele>199.3</ele>
        <time>2018-11-25T13:59:09Z</time>
      </trkpt>
      <trkpt lat="44.42988" lon="1.38285">
        <ele>200</ele>
        <time>2018-11-25T13:59:15Z</time>
      </trkpt>
      <trkpt lat="44.42988" lon="1.38292">
        <ele>200.4</ele>
        <time>2018-11-25T13:59:21Z</time>
      </trkpt>
      <trkpt lat="44.42988" lon="1.383">
        <ele>200.6</ele>
        <time>2018-11-25T13:59:27Z</time>
      </trkpt>
      <trkpt lat="44.42984" lon="1.38306">
        <ele>200.6</ele>
        <time>2018-11-25T13:59:30Z</time>
      </trkpt>
      <trkpt lat="44.4298" lon="1.3831">
        <ele>200.7</ele>
        <time>2018-11-25T13:59:33Z</time>
      </trkpt>
      <trkpt lat="44.4298" lon="1.38318">
        <ele>201.1</ele>
        <time>2018-11-25T13:59:42Z</time>
      </trkpt>
      <trkpt lat="44.42978" lon="1.38325">
        <ele>201.9</ele>
        <time>2018-11-25T14:00:00Z</time>
      </trkpt>
      <trkpt lat="44.42976" lon="1.38332">
        <ele>203.1</ele>
        <time>2018-11-25T14:00:15Z</time>
      </trkpt>
      <trkpt lat="44.42974" lon="1.3834">
        <ele>204.9</ele>
        <time>2018-11-25T14:00:18Z</time>
      </trkpt>
      <trkpt lat="44.42976" lon="1.38348">
        <ele>207</ele>
        <time>2018-11-25T14:00:21Z</time>
      </trkpt>
      <trkpt lat="44.42976" lon="1.38358">
        <ele>209.4</ele>
        <time>2018-11-25T14:00:24Z</time>
      </trkpt>
      <trkpt lat="44.42975" lon="1.38366">
        <ele>212.1</ele>
        <time>2018-11-25T14:00:30Z</time>
      </trkpt>
      <trkpt lat="44.42974" lon="1.38374">
        <ele>214.7</ele>
        <time>2018-11-25T14:00:33Z</time>
      </trkpt>
      <trkpt lat="44.42975" lon="1.38382">
        <ele>217.3</ele>
        <time>2018-11-25T14:00:36Z</time>
      </trkpt>
      <trkpt lat="44.42975" lon="1.38394">
        <ele>219.8</ele>
        <time>2018-11-25T14:00:39Z</time>
      </trkpt>
      <trkpt lat="44.42975" lon="1.38401">
        <ele>222</ele>
        <time>2018-11-25T14:00:42Z</time>
      </trkpt>
      <trkpt lat="44.42974" lon="1.3841">
        <ele>223.8</ele>
        <time>2018-11-25T14:00:48Z</time>
      </trkpt>
      <trkpt lat="44.4297" lon="1.38422">
        <ele>225.4</ele>
        <time>2018-11-25T14:00:54Z</time>
      </trkpt>
      <trkpt lat="44.4297" lon="1.38431">
        <ele>226.7</ele>
        <time>2018-11-25T14:00:57Z</time>
      </trkpt>
      <trkpt lat="44.42969" lon="1.38444">
        <ele>228</ele>
        <time>2018-11-25T14:01:03Z</time>
      </trkpt>
      <trkpt lat="44.42967" lon="1.38452">
        <ele>229.2</ele>
        <time>2018-11-25T14:01:09Z</time>
      </trkpt>
      <trkpt lat="44.42963" lon="1.3846">
        <ele>230.5</ele>
        <time>2018-11-25T14:01:15Z</time>
      </trkpt>
      <trkpt lat="44.42963" lon="1.38467">
        <ele>231.7</ele>
        <time>2018-11-25T14:01:21Z</time>
      </trkpt>
      <trkpt lat="44.4296" lon="1.38476">
        <ele>232.9</ele>
        <time>2018-11-25T14:01:24Z</time>
      </trkpt>
      <trkpt lat="44.42956" lon="1.38483">
        <ele>234.1</ele>
        <time>2018-11-25T14:01:27Z</time>
      </trkpt>
      <trkpt lat="44.42954" lon="1.38491">
        <ele>235.1</ele>
        <time>2018-11-25T14:01:33Z</time>
      </trkpt>
      <trkpt lat="44.42954" lon="1.38502">
        <ele>236.2</ele>
        <time>2018-11-25T14:01:39Z</time>
      </trkpt>
      <trkpt lat="44.42948" lon="1.3851">
        <ele>237.4</ele>
        <time>2018-11-25T14:01:45Z</time>
      </trkpt>
      <trkpt lat="44.42948" lon="1.38518">
        <ele>238.6</ele>
        <time>2018-11-25T14:01:51Z</time>
      </trkpt>
      <trkpt lat="44.42946" lon="1.38531">
        <ele>240</ele>
        <time>2018-11-25T14:01:57Z</time>
      </trkpt>
      <trkpt lat="44.42945" lon="1.38539">
        <ele>241.2</ele>
        <time>2018-11-25T14:02:02Z</time>
      </trkpt>
      <trkpt lat="44.42951" lon="1.38545">
        <ele>242.1</ele>
        <time>2018-11-25T14:02:07Z</time>
      </trkpt>
      <trkpt lat="44.42946" lon="1.38547">
        <ele>242.7</ele>
        <time>2018-11-25T14:02:15Z</time>
      </trkpt>
      <trkpt lat="44.4295" lon="1.38555">
        <ele>242.6</ele>
        <time>2018-11-25T14:02:27Z</time>
      </trkpt>
      <trkpt lat="44.42955" lon="1.38564">
        <ele>242.1</ele>
        <time>2018-11-25T14:02:33Z</time>
      </trkpt>
      <trkpt lat="44.42953" lon="1.38578">
        <ele>241.4</ele>
        <time>2018-11-25T14:02:39Z</time>
      </trkpt>
      <trkpt lat="44.42956" lon="1.38584">
        <ele>240.5</ele>
        <time>2018-11-25T14:02:45Z</time>
      </trkpt>
      <trkpt lat="44.42962" lon="1.3859">
        <ele>239.7</ele>
        <time>2018-11-25T14:02:51Z</time>
      </trkpt>
      <trkpt lat="44.42967" lon="1.38595">
        <ele>238.9</ele>
        <time>2018-11-25T14:02:57Z</time>
      </trkpt>
      <trkpt lat="44.42974" lon="1.38601">
        <ele>238.1</ele>
        <time>2018-11-25T14:03:06Z</time>
      </trkpt>
      <trkpt lat="44.42975" lon="1.38607">
        <ele>237.1</ele>
        <time>2018-11-25T14:03:09Z</time>
      </trkpt>
      <trkpt lat="44.42978" lon="1.38613">
        <ele>235.9</ele>
        <time>2018-11-25T14:03:14Z</time>
      </trkpt>
      <trkpt lat="44.42979" lon="1.3862">
        <ele>234.5</ele>
        <time>2018-11-25T14:03:19Z</time>
      </trkpt>
      <trkpt lat="44.42984" lon="1.38617">
        <ele>233.2</ele>
        <time>2018-11-25T14:03:24Z</time>
      </trkpt>
      <trkpt lat="44.42994" lon="1.38616">
        <ele>232.2</ele>
        <time>2018-11-25T14:03:30Z</time>
      </trkpt>
      <trkpt lat="44.42999" lon="1.38623">
        <ele>231.7</ele>
        <time>2018-11-25T14:03:36Z</time>
      </trkpt>
      <trkpt lat="44.43004" lon="1.38625">
        <ele>231.8</ele>
        <time>2018-11-25T14:03:44Z</time>
      </trkpt>
      <trkpt lat="44.43016" lon="1.38618">
        <ele>232.2</ele>
        <time>2018-11-25T14:03:52Z</time>
      </trkpt>
      <trkpt lat="44.43019" lon="1.38626">
        <ele>232.8</ele>
        <time>2018-11-25T14:03:57Z</time>
      </trkpt>
      <trkpt lat="44.43015" lon="1.38634">
        <ele>233.3</ele>
        <time>2018-11-25T14:04:00Z</time>
      </trkpt>
      <trkpt lat="44.43012" lon="1.38643">
        <ele>233.9</ele>
        <time>2018-11-25T14:04:06Z</time>
      </trkpt>
      <trkpt lat="44.43015" lon="1.3865">
        <ele>234.5</ele>
        <time>2018-11-25T14:04:09Z</time>
      </trkpt>
      <trkpt lat="44.43017" lon="1.38659">
        <ele>235</ele>
        <time>2018-11-25T14:04:15Z</time>
      </trkpt>
      <trkpt lat="44.43021" lon="1.38662">
        <ele>235.6</ele>
        <time>2018-11-25T14:04:18Z</time>
      </trkpt>
      <trkpt lat="44.43017" lon="1.38667">
        <ele>236.3</ele>
        <time>2018-11-25T14:04:36Z</time>
      </trkpt>
      <trkpt lat="44.43023" lon="1.38676">
        <ele>236.9</ele>
        <time>2018-11-25T14:04:45Z</time>
      </trkpt>
      <trkpt lat="44.43027" lon="1.3867">
        <ele>237.4</ele>
        <time>2018-11-25T14:07:52Z</time>
      </trkpt>
      <trkpt lat="44.43031" lon="1.38674">
        <ele>238</ele>
        <time>2018-11-25T14:07:54Z</time>
      </trkpt>
      <trkpt lat="44.43032" lon="1.38668">
        <ele>238.6</ele>
        <time>2018-11-25T14:08:14Z</time>
      </trkpt>
      <trkpt lat="44.43024" lon="1.38674">
        <ele>239.3</ele>
        <time>2018-11-25T14:08:33Z</time>
      </trkpt>
      <trkpt lat="44.43014" lon="1.38696">
        <ele>240.2</ele>
        <time>2018-11-25T14:08:39Z</time>
      </trkpt>
      <trkpt lat="44.43012" lon="1.38702">
        <ele>241.1</ele>
        <time>2018-11-25T14:08:41Z</time>
      </trkpt>
      <trkpt lat="44.43009" lon="1.38708">
        <ele>242</ele>
        <time>2018-11-25T14:08:45Z</time>
      </trkpt>
      <trkpt lat="44.43005" lon="1.38716">
        <ele>242.6</ele>
        <time>2018-11-25T14:08:48Z</time>
      </trkpt>
      <trkpt lat="44.43002" lon="1.38722">
        <ele>242.9</ele>
        <time>2018-11-25T14:08:51Z</time>
      </trkpt>
      <trkpt lat="44.42997" lon="1.38728">
        <ele>243</ele>
        <time>2018-11-25T14:08:57Z</time>
      </trkpt>
      <trkpt lat="44.42994" lon="1.38739">
        <ele>242.7</ele>
        <time>2018-11-25T14:09:03Z</time>
      </trkpt>
      <trkpt lat="44.4299" lon="1.38749">
        <ele>242.4</ele>
        <time>2018-11-25T14:09:09Z</time>
      </trkpt>
      <trkpt lat="44.42981" lon="1.38758">
        <ele>242</ele>
        <time>2018-11-25T14:09:15Z</time>
      </trkpt>
      <trkpt lat="44.42975" lon="1.38766">
        <ele>241.9</ele>
        <time>2018-11-25T14:09:21Z</time>
      </trkpt>
      <trkpt lat="44.42972" lon="1.38774">
        <ele>242.1</ele>
        <time>2018-11-25T14:09:27Z</time>
      </trkpt>
      <trkpt lat="44.42969" lon="1.38781">
        <ele>242.7</ele>
        <time>2018-11-25T14:09:33Z</time>
      </trkpt>
      <trkpt lat="44.42969" lon="1.38788">
        <ele>243.6</ele>
        <time>2018-11-25T14:09:39Z</time>
      </trkpt>
      <trkpt lat="44.42968" lon="1.38799">
        <ele>244.9</ele>
        <time>2018-11-25T14:09:45Z</time>
      </trkpt>
      <trkpt lat="44.42969" lon="1.38808">
        <ele>246.4</ele>
        <time>2018-11-25T14:09:51Z</time>
      </trkpt>
      <trkpt lat="44.42972" lon="1.38819">
        <ele>248</ele>
        <time>2018-11-25T14:09:57Z</time>
      </trkpt>
      <trkpt lat="44.42971" lon="1.38836">
        <ele>249.5</ele>
        <time>2018-11-25T14:10:03Z</time>
      </trkpt>
      <trkpt lat="44.42969" lon="1.38842">
        <ele>250.9</ele>
        <time>2018-11-25T14:10:06Z</time>
      </trkpt>
      <trkpt lat="44.42964" lon="1.38843">
        <ele>252.2</ele>
        <time>2018-11-25T14:10:09Z</time>
      </trkpt>
      <trkpt lat="44.42963" lon="1.38851">
        <ele>253.4</ele>
        <time>2018-11-25T14:10:12Z</time>
      </trkpt>
      <trkpt lat="44.42965" lon="1.3886">
        <ele>254.8</ele>
        <time>2018-11-25T14:10:18Z</time>
      </trkpt>
      <trkpt lat="44.42964" lon="1.38867">
        <ele>256.1</ele>
        <time>2018-11-25T14:10:21Z</time>
      </trkpt>
      <trkpt lat="44.42961" lon="1.3888">
        <ele>257.5</ele>
        <time>2018-11-25T14:10:27Z</time>
      </trkpt>
      <trkpt lat="44.4296" lon="1.38894">
        <ele>258.9</ele>
        <time>2018-11-25T14:10:33Z</time>
      </trkpt>
      <trkpt lat="44.42963" lon="1.38902">
        <ele>260.2</ele>
        <time>2018-11-25T14:10:39Z</time>
      </trkpt>
      <trkpt lat="44.4296" lon="1.38909">
        <ele>261.5</ele>
        <time>2018-11-25T14:10:45Z</time>
      </trkpt>
      <trkpt lat="44.4296" lon="1.38917">
        <ele>262.8</ele>
        <time>2018-11-25T14:10:51Z</time>
      </trkpt>
      <trkpt lat="44.4296" lon="1.38926">
        <ele>264.1</ele>
        <time>2018-11-25T14:10:54Z</time>
      </trkpt>
      <trkpt lat="44.42961" lon="1.38939">
        <ele>265.4</ele>
        <time>2018-11-25T14:11:00Z</time>
      </trkpt>
      <trkpt lat="44.42961" lon="1.38948">
        <ele>266.9</ele>
        <time>2018-11-25T14:11:03Z</time>
      </trkpt>
      <trkpt lat="44.42959" lon="1.38961">
        <ele>268.3</ele>
        <time>2018-11-25T14:11:15Z</time>
      </trkpt>
      <trkpt lat="44.4296" lon="1.38977">
        <ele>269.9</ele>
        <time>2018-11-25T14:11:21Z</time>
      </trkpt>
      <trkpt lat="44.42959" lon="1.38983">
        <ele>271.4</ele>
        <time>2018-11-25T14:11:27Z</time>
      </trkpt>
      <trkpt lat="44.42955" lon="1.38992">
        <ele>272.9</ele>
        <time>2018-11-25T14:11:33Z</time>
      </trkpt>
      <trkpt lat="44.42953" lon="1.38999">
        <ele>274.2</ele>
        <time>2018-11-25T14:11:39Z</time>
      </trkpt>
      <trkpt lat="44.42949" lon="1.38994">
        <ele>275.2</ele>
        <time>2018-11-25T14:11:45Z</time>
      </trkpt>
      <trkpt lat="44.42948" lon="1.38987">
        <ele>275.6</ele>
        <time>2018-11-25T14:11:53Z</time>
      </trkpt>
      <trkpt lat="44.42941" lon="1.38989">
        <ele>275.2</ele>
        <time>2018-11-25T14:11:57Z</time>
      </trkpt>
      <trkpt lat="44.42936" lon="1.38983">
        <ele>274</ele>
        <time>2018-11-25T14:12:00Z</time>
      </trkpt>
      <trkpt lat="44.42932" lon="1.38981">
        <ele>272.1</ele>
        <time>2018-11-25T14:12:09Z</time>
      </trkpt>
      <trkpt lat="44.42926" lon="1.38982">
        <ele>270</ele>
        <time>2018-11-25T14:12:12Z</time>
      </trkpt>
      <trkpt lat="44.42916" lon="1.38985">
        <ele>268</ele>
        <time>2018-11-25T14:12:18Z</time>
      </trkpt>
      <trkpt lat="44.42907" lon="1.38974">
        <ele>266.6</ele>
        <time>2018-11-25T14:12:27Z</time>
      </trkpt>
      <trkpt lat="44.42899" lon="1.38973">
        <ele>265.8</ele>
        <time>2018-11-25T14:12:30Z</time>
      </trkpt>
      <trkpt lat="44.42893" lon="1.38975">
        <ele>265.5</ele>
        <time>2018-11-25T14:12:35Z</time>
      </trkpt>
      <trkpt lat="44.42889" lon="1.38979">
        <ele>265.4</ele>
        <time>2018-11-25T14:12:45Z</time>
      </trkpt>
      <trkpt lat="44.42895" lon="1.38979">
        <ele>265.2</ele>
        <time>2018-11-25T14:12:53Z</time>
      </trkpt>
      <trkpt lat="44.429" lon="1.38977">
        <ele>264.7</ele>
        <time>2018-11-25T14:12:57Z</time>
      </trkpt>
      <trkpt lat="44.42894" lon="1.38974">
        <ele>264.2</ele>
        <time>2018-11-25T14:13:03Z</time>
      </trkpt>
      <trkpt lat="44.42884" lon="1.38973">
        <ele>263.7</ele>
        <time>2018-11-25T14:13:09Z</time>
      </trkpt>
      <trkpt lat="44.42878" lon="1.38966">
        <ele>263.6</ele>
        <time>2018-11-25T14:13:15Z</time>
      </trkpt>
      <trkpt lat="44.42872" lon="1.38963">
        <ele>264.1</ele>
        <time>2018-11-25T14:13:20Z</time>
      </trkpt>
      <trkpt lat="44.42867" lon="1.38962">
        <ele>265.3</ele>
        <time>2018-11-25T14:13:32Z</time>
      </trkpt>
      <trkpt lat="44.4287" lon="1.38981">
        <ele>267.2</ele>
        <time>2018-11-25T14:13:36Z</time>
      </trkpt>
      <trkpt lat="44.42866" lon="1.38986">
        <ele>269.4</ele>
        <time>2018-11-25T14:13:42Z</time>
      </trkpt>
      <trkpt lat="44.42858" lon="1.38978">
        <ele>271.7</ele>
        <time>2018-11-25T14:13:48Z</time>
      </trkpt>
      <trkpt lat="44.42854" lon="1.38973">
        <ele>273.7</ele>
        <time>2018-11-25T14:14:00Z</time>
      </trkpt>
      <trkpt lat="44.4285" lon="1.38969">
        <ele>275.1</ele>
        <time>2018-11-25T14:14:06Z</time>
      </trkpt>
      <trkpt lat="44.42847" lon="1.38964">
        <ele>276</ele>
        <time>2018-11-25T14:14:09Z</time>
      </trkpt>
      <trkpt lat="44.42844" lon="1.38957">
        <ele>276.2</ele>
        <time>2018-11-25T14:14:15Z</time>
      </trkpt>
      <trkpt lat="44.42837" lon="1.38956">
        <ele>276</ele>
        <time>2018-11-25T14:14:21Z</time>
      </trkpt>
      <trkpt lat="44.42831" lon="1.38953">
        <ele>275.6</ele>
        <time>2018-11-25T14:14:27Z</time>
      </trkpt>
      <trkpt lat="44.42826" lon="1.38951">
        <ele>275.3</ele>
        <time>2018-11-25T14:14:33Z</time>
      </trkpt>
      <trkpt lat="44.4282" lon="1.38949">
        <ele>275.3</ele>
        <time>2018-11-25T14:14:45Z</time>
      </trkpt>
      <trkpt lat="44.42821" lon="1.38958">
        <ele>275.8</ele>
        <time>2018-11-25T14:14:51Z</time>
      </trkpt>
      <trkpt lat="44.42816" lon="1.38958">
        <ele>276.7</ele>
        <time>2018-11-25T14:15:00Z</time>
      </trkpt>
      <trkpt lat="44.4281" lon="1.38956">
        <ele>277.9</ele>
        <time>2018-11-25T14:15:06Z</time>
      </trkpt>
      <trkpt lat="44.42804" lon="1.38955">
        <ele>279.4</ele>
        <time>2018-11-25T14:15:12Z</time>
      </trkpt>
      <trkpt lat="44.42799" lon="1.38952">
        <ele>280.8</ele>
        <time>2018-11-25T14:15:27Z</time>
      </trkpt>
      <trkpt lat="44.42794" lon="1.38949">
        <ele>281.9</ele>
        <time>2018-11-25T14:15:35Z</time>
      </trkpt>
      <trkpt lat="44.4279" lon="1.38946">
        <ele>282.6</ele>
        <time>2018-11-25T14:15:44Z</time>
      </trkpt>
      <trkpt lat="44.42779" lon="1.38954">
        <ele>282.6</ele>
        <time>2018-11-25T14:15:48Z</time>
      </trkpt>
      <trkpt lat="44.42784" lon="1.38952">
        <ele>282.1</ele>
        <time>2018-11-25T14:15:51Z</time>
      </trkpt>
      <trkpt lat="44.4278" lon="1.38947">
        <ele>281.5</ele>
        <time>2018-11-25T14:15:59Z</time>
      </trkpt>
      <trkpt lat="44.42775" lon="1.38942">
        <ele>281</ele>
        <time>2018-11-25T14:16:05Z</time>
      </trkpt>
      <trkpt lat="44.4278" lon="1.38946">
        <ele>280.8</ele>
        <time>2018-11-25T14:16:21Z</time>
      </trkpt>
      <trkpt lat="44.42775" lon="1.38951">
        <ele>280.9</ele>
        <time>2018-11-25T14:17:42Z</time>
      </trkpt>
      <trkpt lat="44.42773" lon="1.38959">
        <ele>281.2</ele>
        <time>2018-11-25T14:17:54Z</time>
      </trkpt>
      <trkpt lat="44.42772" lon="1.38967">
        <ele>281.4</ele>
        <time>2018-11-25T14:18:00Z</time>
      </trkpt>
      <trkpt lat="44.42771" lon="1.38981">
        <ele>281.4</ele>
        <time>2018-11-25T14:18:15Z</time>
      </trkpt>
      <trkpt lat="44.42773" lon="1.38987">
        <ele>281.1</ele>
        <time>2018-11-25T14:18:20Z</time>
      </trkpt>
      <trkpt lat="44.4277" lon="1.38993">
        <ele>280.5</ele>
        <time>2018-11-25T14:18:36Z</time>
      </trkpt>
      <trkpt lat="44.42768" lon="1.39003">
        <ele>279.8</ele>
        <time>2018-11-25T14:18:42Z</time>
      </trkpt>
      <trkpt lat="44.42764" lon="1.39024">
        <ele>279.2</ele>
        <time>2018-11-25T14:18:48Z</time>
      </trkpt>
      <trkpt lat="44.42771" lon="1.39015">
        <ele>278.9</ele>
        <time>2018-11-25T14:18:51Z</time>
      </trkpt>
      <trkpt lat="44.42765" lon="1.39017">
        <ele>278.8</ele>
        <time>2018-11-25T14:18:56Z</time>
      </trkpt>
      <trkpt lat="44.42767" lon="1.39024">
        <ele>278.7</ele>
        <time>2018-11-25T14:19:03Z</time>
      </trkpt>
      <trkpt lat="44.42762" lon="1.39026">
        <ele>278.5</ele>
        <time>2018-11-25T14:19:12Z</time>
      </trkpt>
      <trkpt lat="44.4276" lon="1.39042">
        <ele>278.1</ele>
        <time>2018-11-25T14:19:21Z</time>
      </trkpt>
      <trkpt lat="44.42758" lon="1.39053">
        <ele>277.5</ele>
        <time>2018-11-25T14:19:31Z</time>
      </trkpt>
      <trkpt lat="44.42755" lon="1.3906">
        <ele>276.6</ele>
        <time>2018-11-25T14:19:33Z</time>
      </trkpt>
      <trkpt lat="44.42754" lon="1.39073">
        <ele>275.9</ele>
        <time>2018-11-25T14:19:42Z</time>
      </trkpt>
      <trkpt lat="44.42755" lon="1.39079">
        <ele>275.4</ele>
        <time>2018-11-25T14:19:45Z</time>
      </trkpt>
      <trkpt lat="44.42757" lon="1.3909">
        <ele>275.4</ele>
        <time>2018-11-25T14:19:51Z</time>
      </trkpt>
      <trkpt lat="44.42753" lon="1.39104">
        <ele>276</ele>
        <time>2018-11-25T14:19:56Z</time>
      </trkpt>
      <trkpt lat="44.42757" lon="1.39113">
        <ele>276.9</ele>
        <time>2018-11-25T14:20:03Z</time>
      </trkpt>
      <trkpt lat="44.42762" lon="1.39117">
        <ele>278</ele>
        <time>2018-11-25T14:20:13Z</time>
      </trkpt>
      <trkpt lat="44.42757" lon="1.39118">
        <ele>279.2</ele>
        <time>2018-11-25T14:20:15Z</time>
      </trkpt>
      <trkpt lat="44.4276" lon="1.39125">
        <ele>280.1</ele>
        <time>2018-11-25T14:20:23Z</time>
      </trkpt>
      <trkpt lat="44.42755" lon="1.39129">
        <ele>280.5</ele>
        <time>2018-11-25T14:20:29Z</time>
      </trkpt>
      <trkpt lat="44.42759" lon="1.39134">
        <ele>280.6</ele>
        <time>2018-11-25T14:20:37Z</time>
      </trkpt>
      <trkpt lat="44.42755" lon="1.39152">
        <ele>280.3</ele>
        <time>2018-11-25T14:20:45Z</time>
      </trkpt>
      <trkpt lat="44.42751" lon="1.3917">
        <ele>279.7</ele>
        <time>2018-11-25T14:20:50Z</time>
      </trkpt>
      <trkpt lat="44.42751" lon="1.39179">
        <ele>278.9</ele>
        <time>2018-11-25T14:20:55Z</time>
      </trkpt>
      <trkpt lat="44.42754" lon="1.39187">
        <ele>278</ele>
        <time>2018-11-25T14:21:03Z</time>
      </trkpt>
      <trkpt lat="44.42751" lon="1.39196">
        <ele>277.2</ele>
        <time>2018-11-25T14:21:09Z</time>
      </trkpt>
      <trkpt lat="44.42747" lon="1.39192">
        <ele>276.6</ele>
        <time>2018-11-25T14:21:20Z</time>
      </trkpt>
      <trkpt lat="44.42745" lon="1.39181">
        <ele>276.4</ele>
        <time>2018-11-25T14:21:24Z</time>
      </trkpt>
      <trkpt lat="44.42744" lon="1.39187">
        <ele>276.5</ele>
        <time>2018-11-25T14:22:02Z</time>
      </trkpt>
      <trkpt lat="44.42749" lon="1.39187">
        <ele>277.2</ele>
        <time>2018-11-25T14:23:49Z</time>
      </trkpt>
      <trkpt lat="44.42753" lon="1.39181">
        <ele>278.2</ele>
        <time>2018-11-25T14:23:54Z</time>
      </trkpt>
      <trkpt lat="44.42769" lon="1.39172">
        <ele>279.5</ele>
        <time>2018-11-25T14:24:00Z</time>
      </trkpt>
      <trkpt lat="44.42773" lon="1.39167">
        <ele>280.6</ele>
        <time>2018-11-25T14:24:02Z</time>
      </trkpt>
      <trkpt lat="44.42773" lon="1.3916">
        <ele>281.5</ele>
        <time>2018-11-25T14:24:08Z</time>
      </trkpt>
      <trkpt lat="44.42776" lon="1.39152">
        <ele>282</ele>
        <time>2018-11-25T14:24:14Z</time>
      </trkpt>
      <trkpt lat="44.42784" lon="1.39161">
        <ele>282.1</ele>
        <time>2018-11-25T14:24:33Z</time>
      </trkpt>
      <trkpt lat="44.42788" lon="1.39163">
        <ele>281.7</ele>
        <time>2018-11-25T14:24:36Z</time>
      </trkpt>
      <trkpt lat="44.42799" lon="1.39164">
        <ele>281</ele>
        <time>2018-11-25T14:24:42Z</time>
      </trkpt>
      <trkpt lat="44.42802" lon="1.39159">
        <ele>279.9</ele>
        <time>2018-11-25T14:24:47Z</time>
      </trkpt>
      <trkpt lat="44.42808" lon="1.39159">
        <ele>278.7</ele>
        <time>2018-11-25T14:24:53Z</time>
      </trkpt>
      <trkpt lat="44.42813" lon="1.39163">
        <ele>277.3</ele>
        <time>2018-11-25T14:24:57Z</time>
      </trkpt>
      <trkpt lat="44.42821" lon="1.39165">
        <ele>276</ele>
        <time>2018-11-25T14:25:22Z</time>
      </trkpt>
      <trkpt lat="44.42826" lon="1.39166">
        <ele>274.8</ele>
        <time>2018-11-25T14:25:24Z</time>
      </trkpt>
      <trkpt lat="44.42831" lon="1.39172">
        <ele>274</ele>
        <time>2018-11-25T14:25:32Z</time>
      </trkpt>
      <trkpt lat="44.42836" lon="1.39173">
        <ele>273.7</ele>
        <time>2018-11-25T14:25:36Z</time>
      </trkpt>
      <trkpt lat="44.4283" lon="1.39174">
        <ele>274</ele>
        <time>2018-11-25T14:25:48Z</time>
      </trkpt>
      <trkpt lat="44.42835" lon="1.39175">
        <ele>274.7</ele>
        <time>2018-11-25T14:25:51Z</time>
      </trkpt>
      <trkpt lat="44.42845" lon="1.3918">
        <ele>275.7</ele>
        <time>2018-11-25T14:25:57Z</time>
      </trkpt>
      <trkpt lat="44.42857" lon="1.39182">
        <ele>276.7</ele>
        <time>2018-11-25T14:26:03Z</time>
      </trkpt>
      <trkpt lat="44.42864" lon="1.39182">
        <ele>277.3</ele>
        <time>2018-11-25T14:26:09Z</time>
      </trkpt>
      <trkpt lat="44.42869" lon="1.39184">
        <ele>277.6</ele>
        <time>2018-11-25T14:26:14Z</time>
      </trkpt>
      <trkpt lat="44.42872" lon="1.3919">
        <ele>277.5</ele>
        <time>2018-11-25T14:26:18Z</time>
      </trkpt>
      <trkpt lat="44.42876" lon="1.39193">
        <ele>277.1</ele>
        <time>2018-11-25T14:26:24Z</time>
      </trkpt>
      <trkpt lat="44.42881" lon="1.39196">
        <ele>276.8</ele>
        <time>2018-11-25T14:26:35Z</time>
      </trkpt>
      <trkpt lat="44.42883" lon="1.39202">
        <ele>276.7</ele>
        <time>2018-11-25T14:26:39Z</time>
      </trkpt>
      <trkpt lat="44.42889" lon="1.39201">
        <ele>277.1</ele>
        <time>2018-11-25T14:26:45Z</time>
      </trkpt>
      <trkpt lat="44.42903" lon="1.39201">
        <ele>277.9</ele>
        <time>2018-11-25T14:26:55Z</time>
      </trkpt>
      <trkpt lat="44.42908" lon="1.39203">
        <ele>279.2</ele>
        <time>2018-11-25T14:27:03Z</time>
      </trkpt>
      <trkpt lat="44.42913" lon="1.39205">
        <ele>280.6</ele>
        <time>2018-11-25T14:27:13Z</time>
      </trkpt>
      <trkpt lat="44.42917" lon="1.39203">
        <ele>282</ele>
        <time>2018-11-25T14:27:21Z</time>
      </trkpt>
      <trkpt lat="44.42925" lon="1.39207">
        <ele>283.3</ele>
        <time>2018-11-25T14:27:27Z</time>
      </trkpt>
      <trkpt lat="44.42941" lon="1.39213">
        <ele>284.1</ele>
        <time>2018-11-25T14:27:36Z</time>
      </trkpt>
      <trkpt lat="44.42952" lon="1.39213">
        <ele>284.5</ele>
        <time>2018-11-25T14:27:42Z</time>
      </trkpt>
      <trkpt lat="44.42956" lon="1.39216">
        <ele>284.6</ele>
        <time>2018-11-25T14:27:47Z</time>
      </trkpt>
      <trkpt lat="44.42966" lon="1.39225">
        <ele>284.7</ele>
        <time>2018-11-25T14:28:00Z</time>
      </trkpt>
      <trkpt lat="44.42972" lon="1.39226">
        <ele>284.9</ele>
        <time>2018-11-25T14:28:03Z</time>
      </trkpt>
      <trkpt lat="44.42966" lon="1.39221">
        <ele>285.2</ele>
        <time>2018-11-25T14:28:06Z</time>
      </trkpt>
      <trkpt lat="44.42971" lon="1.39218">
        <ele>285.8</ele>
        <time>2018-11-25T14:28:14Z</time>
      </trkpt>
      <trkpt lat="44.4297" lon="1.39226">
        <ele>286.4</ele>
        <time>2018-11-25T14:28:18Z</time>
      </trkpt>
      <trkpt lat="44.42972" lon="1.39218">
        <ele>286.9</ele>
        <time>2018-11-25T14:28:27Z</time>
      </trkpt>
      <trkpt lat="44.42977" lon="1.39214">
        <ele>287</ele>
        <time>2018-11-25T14:28:36Z</time>
      </trkpt>
      <trkpt lat="44.42982" lon="1.39213">
        <ele>286.7</ele>
        <time>2018-11-25T14:28:45Z</time>
      </trkpt>
      <trkpt lat="44.42995" lon="1.39218">
        <ele>286.1</ele>
        <time>2018-11-25T14:28:51Z</time>
      </trkpt>
      <trkpt lat="44.43001" lon="1.3922">
        <ele>285.2</ele>
        <time>2018-11-25T14:28:56Z</time>
      </trkpt>
      <trkpt lat="44.43011" lon="1.39221">
        <ele>284.3</ele>
        <time>2018-11-25T14:29:00Z</time>
      </trkpt>
      <trkpt lat="44.43018" lon="1.39225">
        <ele>283.4</ele>
        <time>2018-11-25T14:29:06Z</time>
      </trkpt>
      <trkpt lat="44.43023" lon="1.39233">
        <ele>282.8</ele>
        <time>2018-11-25T14:29:15Z</time>
      </trkpt>
      <trkpt lat="44.4303" lon="1.39233">
        <ele>282.5</ele>
        <time>2018-11-25T14:29:21Z</time>
      </trkpt>
      <trkpt lat="44.43033" lon="1.39238">
        <ele>282.6</ele>
        <time>2018-11-25T14:29:26Z</time>
      </trkpt>
      <trkpt lat="44.4304" lon="1.39238">
        <ele>283</ele>
        <time>2018-11-25T14:29:30Z</time>
      </trkpt>
      <trkpt lat="44.43042" lon="1.39243">
        <ele>283.6</ele>
        <time>2018-11-25T14:29:38Z</time>
      </trkpt>
      <trkpt lat="44.43054" lon="1.39249">
        <ele>284.2</ele>
        <time>2018-11-25T14:29:45Z</time>
      </trkpt>
      <trkpt lat="44.43062" lon="1.39251">
        <ele>284.8</ele>
        <time>2018-11-25T14:29:51Z</time>
      </trkpt>
      <trkpt lat="44.43072" lon="1.39247">
        <ele>285.1</ele>
        <time>2018-11-25T14:30:03Z</time>
      </trkpt>
      <trkpt lat="44.43078" lon="1.39252">
        <ele>285.2</ele>
        <time>2018-11-25T14:30:09Z</time>
      </trkpt>
      <trkpt lat="44.43085" lon="1.39256">
        <ele>284.9</ele>
        <time>2018-11-25T14:30:15Z</time>
      </trkpt>
      <trkpt lat="44.4309" lon="1.39261">
        <ele>284.3</ele>
        <time>2018-11-25T14:30:20Z</time>
      </trkpt>
      <trkpt lat="44.43095" lon="1.39257">
        <ele>283.7</ele>
        <time>2018-11-25T14:30:25Z</time>
      </trkpt>
      <trkpt lat="44.4309" lon="1.39258">
        <ele>283</ele>
        <time>2018-11-25T14:30:42Z</time>
      </trkpt>
      <trkpt lat="44.43095" lon="1.39256">
        <ele>282.6</ele>
        <time>2018-11-25T14:31:07Z</time>
      </trkpt>
      <trkpt lat="44.43102" lon="1.39256">
        <ele>282.4</ele>
        <time>2018-11-25T14:31:09Z</time>
      </trkpt>
      <trkpt lat="44.43112" lon="1.39261">
        <ele>282.5</ele>
        <time>2018-11-25T14:31:15Z</time>
      </trkpt>
      <trkpt lat="44.4312" lon="1.39261">
        <ele>282.7</ele>
        <time>2018-11-25T14:31:20Z</time>
      </trkpt>
      <trkpt lat="44.4313" lon="1.39265">
        <ele>282.9</ele>
        <time>2018-11-25T14:31:52Z</time>
      </trkpt>
      <trkpt lat="44.43134" lon="1.39269">
        <ele>282.8</ele>
        <time>2018-11-25T14:31:56Z</time>
      </trkpt>
      <trkpt lat="44.43141" lon="1.39272">
        <ele>282.2</ele>
        <time>2018-11-25T14:32:00Z</time>
      </trkpt>
      <trkpt lat="44.43156" lon="1.39273">
        <ele>281.1</ele>
        <time>2018-11-25T14:32:06Z</time>
      </trkpt>
      <trkpt lat="44.43161" lon="1.39273">
        <ele>279.7</ele>
        <time>2018-11-25T14:32:08Z</time>
      </trkpt>
      <trkpt lat="44.43165" lon="1.39267">
        <ele>278.2</ele>
        <time>2018-11-25T14:32:12Z</time>
      </trkpt>
      <trkpt lat="44.43171" lon="1.39266">
        <ele>276.6</ele>
        <time>2018-11-25T14:32:29Z</time>
      </trkpt>
      <trkpt lat="44.43183" lon="1.39273">
        <ele>275.3</ele>
        <time>2018-11-25T14:32:34Z</time>
      </trkpt>
      <trkpt lat="44.4319" lon="1.39272">
        <ele>274.3</ele>
        <time>2018-11-25T14:32:39Z</time>
      </trkpt>
      <trkpt lat="44.43185" lon="1.39276">
        <ele>273.6</ele>
        <time>2018-11-25T14:32:45Z</time>
      </trkpt>
      <trkpt lat="44.43191" lon="1.39277">
        <ele>273.3</ele>
        <time>2018-11-25T14:32:48Z</time>
      </trkpt>
      <trkpt lat="44.43186" lon="1.39279">
        <ele>273.3</ele>
        <time>2018-11-25T14:32:52Z</time>
      </trkpt>
      <trkpt lat="44.4319" lon="1.39285">
        <ele>273.6</ele>
        <time>2018-11-25T14:33:00Z</time>
      </trkpt>
      <trkpt lat="44.43193" lon="1.39291">
        <ele>274</ele>
        <time>2018-11-25T14:33:09Z</time>
      </trkpt>
      <trkpt lat="44.43188" lon="1.39294">
        <ele>274.5</ele>
        <time>2018-11-25T14:33:24Z</time>
      </trkpt>
      <trkpt lat="44.43192" lon="1.39301">
        <ele>275</ele>
        <time>2018-11-25T14:33:45Z</time>
      </trkpt>
      <trkpt lat="44.43191" lon="1.39309">
        <ele>275.3</ele>
        <time>2018-11-25T14:33:48Z</time>
      </trkpt>
      <trkpt lat="44.43197" lon="1.39314">
        <ele>275.6</ele>
        <time>2018-11-25T14:33:54Z</time>
      </trkpt>
      <trkpt lat="44.43187" lon="1.39334">
        <ele>275.8</ele>
        <time>2018-11-25T14:34:06Z</time>
      </trkpt>
      <trkpt lat="44.43183" lon="1.39341">
        <ele>276</ele>
        <time>2018-11-25T14:34:08Z</time>
      </trkpt>
      <trkpt lat="44.43179" lon="1.39347">
        <ele>276.1</ele>
        <time>2018-11-25T14:34:11Z</time>
      </trkpt>
      <trkpt lat="44.43183" lon="1.39351">
        <ele>276.1</ele>
        <time>2018-11-25T14:34:15Z</time>
      </trkpt>
      <trkpt lat="44.43184" lon="1.39369">
        <ele>275.8</ele>
        <time>2018-11-25T14:34:21Z</time>
      </trkpt>
      <trkpt lat="44.43188" lon="1.39373">
        <ele>275.2</ele>
        <time>2018-11-25T14:34:33Z</time>
      </trkpt>
      <trkpt lat="44.43188" lon="1.39386">
        <ele>274.4</ele>
        <time>2018-11-25T14:34:42Z</time>
      </trkpt>
      <trkpt lat="44.43185" lon="1.39397">
        <ele>273.6</ele>
        <time>2018-11-25T14:34:48Z</time>
      </trkpt>
      <trkpt lat="44.43183" lon="1.39404">
        <ele>273.1</ele>
        <time>2018-11-25T14:34:53Z</time>
      </trkpt>
      <trkpt lat="44.43179" lon="1.3941">
        <ele>273.1</ele>
        <time>2018-11-25T14:34:57Z</time>
      </trkpt>
      <trkpt lat="44.43178" lon="1.39419">
        <ele>273.7</ele>
        <time>2018-11-25T14:35:03Z</time>
      </trkpt>
      <trkpt lat="44.43176" lon="1.39425">
        <ele>275</ele>
        <time>2018-11-25T14:35:09Z</time>
      </trkpt>
      <trkpt lat="44.43173" lon="1.39437">
        <ele>276.5</ele>
        <time>2018-11-25T14:35:15Z</time>
      </trkpt>
      <trkpt lat="44.4318" lon="1.39437">
        <ele>278</ele>
        <time>2018-11-25T14:35:21Z</time>
      </trkpt>
      <trkpt lat="44.43185" lon="1.39429">
        <ele>279.3</ele>
        <time>2018-11-25T14:35:27Z</time>
      </trkpt>
      <trkpt lat="44.43191" lon="1.39427">
        <ele>280.2</ele>
        <time>2018-11-25T14:35:40Z</time>
      </trkpt>
      <trkpt lat="44.43196" lon="1.39424">
        <ele>280.6</ele>
        <time>2018-11-25T14:35:45Z</time>
      </trkpt>
      <trkpt lat="44.43202" lon="1.39415">
        <ele>280.6</ele>
        <time>2018-11-25T14:35:51Z</time>
      </trkpt>
      <trkpt lat="44.43207" lon="1.39409">
        <ele>280.3</ele>
        <time>2018-11-25T14:35:57Z</time>
      </trkpt>
      <trkpt lat="44.43222" lon="1.39407">
        <ele>279.9</ele>
        <time>2018-11-25T14:36:06Z</time>
      </trkpt>
      <trkpt lat="44.43228" lon="1.39405">
        <ele>279.5</ele>
        <time>2018-11-25T14:36:11Z</time>
      </trkpt>
      <trkpt lat="44.43231" lon="1.39399">
        <ele>279.4</ele>
        <time>2018-11-25T14:36:17Z</time>
      </trkpt>
      <trkpt lat="44.43236" lon="1.39393">
        <ele>279.4</ele>
        <time>2018-11-25T14:36:24Z</time>
      </trkpt>
      <trkpt lat="44.43236" lon="1.39385">
        <ele>279.6</ele>
        <time>2018-11-25T14:36:30Z</time>
      </trkpt>
      <trkpt lat="44.43245" lon="1.39381">
        <ele>279.7</ele>
        <time>2018-11-25T14:36:36Z</time>
      </trkpt>
      <trkpt lat="44.43247" lon="1.39374">
        <ele>279.8</ele>
        <time>2018-11-25T14:36:42Z</time>
      </trkpt>
      <trkpt lat="44.43252" lon="1.39374">
        <ele>279.9</ele>
        <time>2018-11-25T14:36:48Z</time>
      </trkpt>
      <trkpt lat="44.43259" lon="1.3937">
        <ele>280.1</ele>
        <time>2018-11-25T14:36:54Z</time>
      </trkpt>
      <trkpt lat="44.43263" lon="1.39363">
        <ele>280.4</ele>
        <time>2018-11-25T14:37:00Z</time>
      </trkpt>
      <trkpt lat="44.4327" lon="1.39361">
        <ele>280.7</ele>
        <time>2018-11-25T14:37:06Z</time>
      </trkpt>
      <trkpt lat="44.43279" lon="1.39356">
        <ele>281</ele>
        <time>2018-11-25T14:37:12Z</time>
      </trkpt>
      <trkpt lat="44.43283" lon="1.39352">
        <ele>281.1</ele>
        <time>2018-11-25T14:37:17Z</time>
      </trkpt>
      <trkpt lat="44.43289" lon="1.39347">
        <ele>280.8</ele>
        <time>2018-11-25T14:37:23Z</time>
      </trkpt>
      <trkpt lat="44.43292" lon="1.39341">
        <ele>280.1</ele>
        <time>2018-11-25T14:37:29Z</time>
      </trkpt>
      <trkpt lat="44.433" lon="1.3934">
        <ele>279.1</ele>
        <time>2018-11-25T14:37:33Z</time>
      </trkpt>
      <trkpt lat="44.43307" lon="1.39332">
        <ele>277.9</ele>
        <time>2018-11-25T14:37:42Z</time>
      </trkpt>
      <trkpt lat="44.43315" lon="1.3933">
        <ele>276.6</ele>
        <time>2018-11-25T14:37:45Z</time>
      </trkpt>
      <trkpt lat="44.4332" lon="1.39328">
        <ele>275.5</ele>
        <time>2018-11-25T14:37:48Z</time>
      </trkpt>
      <trkpt lat="44.43326" lon="1.39322">
        <ele>274.6</ele>
        <time>2018-11-25T14:37:54Z</time>
      </trkpt>
      <trkpt lat="44.43332" lon="1.39323">
        <ele>273.8</ele>
        <time>2018-11-25T14:38:00Z</time>
      </trkpt>
      <trkpt lat="44.43337" lon="1.39323">
        <ele>273.3</ele>
        <time>2018-11-25T14:38:03Z</time>
      </trkpt>
      <trkpt lat="44.4334" lon="1.39317">
        <ele>273</ele>
        <time>2018-11-25T14:38:11Z</time>
      </trkpt>
      <trkpt lat="44.43343" lon="1.39308">
        <ele>272.7</ele>
        <time>2018-11-25T14:38:17Z</time>
      </trkpt>
      <trkpt lat="44.4335" lon="1.39308">
        <ele>272.3</ele>
        <time>2018-11-25T14:38:21Z</time>
      </trkpt>
      <trkpt lat="44.43356" lon="1.39302">
        <ele>271.9</ele>
        <time>2018-11-25T14:38:27Z</time>
      </trkpt>
      <trkpt lat="44.43363" lon="1.39294">
        <ele>271.5</ele>
        <time>2018-11-25T14:38:33Z</time>
      </trkpt>
      <trkpt lat="44.43371" lon="1.39293">
        <ele>271.2</ele>
        <time>2018-11-25T14:38:39Z</time>
      </trkpt>
      <trkpt lat="44.43375" lon="1.39287">
        <ele>271.1</ele>
        <time>2018-11-25T14:38:47Z</time>
      </trkpt>
      <trkpt lat="44.43387" lon="1.39286">
        <ele>271.2</ele>
        <time>2018-11-25T14:38:54Z</time>
      </trkpt>
      <trkpt lat="44.43398" lon="1.39281">
        <ele>271.6</ele>
        <time>2018-11-25T14:39:00Z</time>
      </trkpt>
      <trkpt lat="44.43405" lon="1.39278">
        <ele>272.3</ele>
        <time>2018-11-25T14:39:03Z</time>
      </trkpt>
      <trkpt lat="44.43408" lon="1.39271">
        <ele>273.2</ele>
        <time>2018-11-25T14:39:11Z</time>
      </trkpt>
      <trkpt lat="44.43413" lon="1.39272">
        <ele>274.2</ele>
        <time>2018-11-25T14:39:15Z</time>
      </trkpt>
      <trkpt lat="44.43418" lon="1.39271">
        <ele>275.4</ele>
        <time>2018-11-25T14:39:20Z</time>
      </trkpt>
      <trkpt lat="44.43423" lon="1.3927">
        <ele>276.7</ele>
        <time>2018-11-25T14:39:24Z</time>
      </trkpt>
      <trkpt lat="44.4343" lon="1.39266">
        <ele>277.9</ele>
        <time>2018-11-25T14:39:33Z</time>
      </trkpt>
      <trkpt lat="44.43435" lon="1.39262">
        <ele>278.9</ele>
        <time>2018-11-25T14:39:41Z</time>
      </trkpt>
      <trkpt lat="44.43439" lon="1.39256">
        <ele>279.6</ele>
        <time>2018-11-25T14:39:48Z</time>
      </trkpt>
      <trkpt lat="44.43444" lon="1.39254">
        <ele>279.8</ele>
        <time>2018-11-25T14:39:51Z</time>
      </trkpt>
      <trkpt lat="44.43449" lon="1.39254">
        <ele>279.7</ele>
        <time>2018-11-25T14:39:54Z</time>
      </trkpt>
      <trkpt lat="44.43453" lon="1.3925">
        <ele>279.1</ele>
        <time>2018-11-25T14:40:03Z</time>
      </trkpt>
      <trkpt lat="44.43462" lon="1.39251">
        <ele>278.4</ele>
        <time>2018-11-25T14:40:09Z</time>
      </trkpt>
      <trkpt lat="44.43468" lon="1.39249">
        <ele>277.6</ele>
        <time>2018-11-25T14:40:15Z</time>
      </trkpt>
      <trkpt lat="44.43472" lon="1.39248">
        <ele>277</ele>
        <time>2018-11-25T14:40:20Z</time>
      </trkpt>
      <trkpt lat="44.43483" lon="1.39246">
        <ele>276.6</ele>
        <time>2018-11-25T14:40:25Z</time>
      </trkpt>
      <trkpt lat="44.43489" lon="1.39243">
        <ele>276.3</ele>
        <time>2018-11-25T14:40:30Z</time>
      </trkpt>
      <trkpt lat="44.43496" lon="1.39239">
        <ele>276.1</ele>
        <time>2018-11-25T14:40:39Z</time>
      </trkpt>
      <trkpt lat="44.43505" lon="1.39243">
        <ele>275.9</ele>
        <time>2018-11-25T14:40:42Z</time>
      </trkpt>
      <trkpt lat="44.43514" lon="1.39236">
        <ele>275.4</ele>
        <time>2018-11-25T14:40:54Z</time>
      </trkpt>
      <trkpt lat="44.43521" lon="1.39235">
        <ele>274.6</ele>
        <time>2018-11-25T14:40:59Z</time>
      </trkpt>
      <trkpt lat="44.43534" lon="1.39236">
        <ele>273.5</ele>
        <time>2018-11-25T14:41:03Z</time>
      </trkpt>
      <trkpt lat="44.43539" lon="1.39235">
        <ele>272.1</ele>
        <time>2018-11-25T14:41:05Z</time>
      </trkpt>
      <trkpt lat="44.43545" lon="1.3923">
        <ele>270.6</ele>
        <time>2018-11-25T14:41:09Z</time>
      </trkpt>
      <trkpt lat="44.43556" lon="1.3923">
        <ele>269</ele>
        <time>2018-11-25T14:41:15Z</time>
      </trkpt>
      <trkpt lat="44.43566" lon="1.39231">
        <ele>267.6</ele>
        <time>2018-11-25T14:41:21Z</time>
      </trkpt>
      <trkpt lat="44.43571" lon="1.39228">
        <ele>266.3</ele>
        <time>2018-11-25T14:41:29Z</time>
      </trkpt>
      <trkpt lat="44.43575" lon="1.39227">
        <ele>265.2</ele>
        <time>2018-11-25T14:41:38Z</time>
      </trkpt>
      <trkpt lat="44.43587" lon="1.39229">
        <ele>264</ele>
        <time>2018-11-25T14:41:43Z</time>
      </trkpt>
      <trkpt lat="44.43593" lon="1.39235">
        <ele>262.6</ele>
        <time>2018-11-25T14:41:48Z</time>
      </trkpt>
      <trkpt lat="44.43598" lon="1.39234">
        <ele>261</ele>
        <time>2018-11-25T14:41:54Z</time>
      </trkpt>
      <trkpt lat="44.43602" lon="1.39229">
        <ele>258.9</ele>
        <time>2018-11-25T14:42:00Z</time>
      </trkpt>
      <trkpt lat="44.43611" lon="1.39226">
        <ele>256.6</ele>
        <time>2018-11-25T14:42:09Z</time>
      </trkpt>
      <trkpt lat="44.43618" lon="1.39228">
        <ele>254.4</ele>
        <time>2018-11-25T14:42:15Z</time>
      </trkpt>
      <trkpt lat="44.43622" lon="1.3923">
        <ele>252.3</ele>
        <time>2018-11-25T14:42:29Z</time>
      </trkpt>
      <trkpt lat="44.43629" lon="1.39231">
        <ele>250.6</ele>
        <time>2018-11-25T14:42:33Z</time>
      </trkpt>
      <trkpt lat="44.43625" lon="1.39226">
        <ele>249.2</ele>
        <time>2018-11-25T14:42:36Z</time>
      </trkpt>
      <trkpt lat="44.43639" lon="1.39225">
        <ele>248.3</ele>
        <time>2018-11-25T14:42:42Z</time>
      </trkpt>
      <trkpt lat="44.43644" lon="1.39227">
        <ele>247.8</ele>
        <time>2018-11-25T14:42:45Z</time>
      </trkpt>
      <trkpt lat="44.4365" lon="1.39233">
        <ele>247.4</ele>
        <time>2018-11-25T14:42:54Z</time>
      </trkpt>
      <trkpt lat="44.43656" lon="1.39232">
        <ele>247.3</ele>
        <time>2018-11-25T14:43:05Z</time>
      </trkpt>
      <trkpt lat="44.43659" lon="1.39228">
        <ele>247.4</ele>
        <time>2018-11-25T14:43:09Z</time>
      </trkpt>
      <trkpt lat="44.43668" lon="1.3923">
        <ele>247.6</ele>
        <time>2018-11-25T14:43:15Z</time>
      </trkpt>
      <trkpt lat="44.43676" lon="1.39234">
        <ele>247.9</ele>
        <time>2018-11-25T14:43:31Z</time>
      </trkpt>
      <trkpt lat="44.43682" lon="1.39232">
        <ele>248.3</ele>
        <time>2018-11-25T14:43:33Z</time>
      </trkpt>
      <trkpt lat="44.4369" lon="1.39232">
        <ele>248.9</ele>
        <time>2018-11-25T14:43:42Z</time>
      </trkpt>
      <trkpt lat="44.43695" lon="1.3923">
        <ele>249.5</ele>
        <time>2018-11-25T14:43:45Z</time>
      </trkpt>
      <trkpt lat="44.437" lon="1.39232">
        <ele>249.9</ele>
        <time>2018-11-25T14:43:48Z</time>
      </trkpt>
      <trkpt lat="44.43704" lon="1.39231">
        <ele>250.1</ele>
        <time>2018-11-25T14:43:51Z</time>
      </trkpt>
      <trkpt lat="44.43713" lon="1.39235">
        <ele>250.1</ele>
        <time>2018-11-25T14:43:57Z</time>
      </trkpt>
      <trkpt lat="44.4372" lon="1.39245">
        <ele>249.8</ele>
        <time>2018-11-25T14:44:09Z</time>
      </trkpt>
      <trkpt lat="44.43728" lon="1.39246">
        <ele>249.2</ele>
        <time>2018-11-25T14:44:12Z</time>
      </trkpt>
      <trkpt lat="44.43734" lon="1.3925">
        <ele>248.5</ele>
        <time>2018-11-25T14:44:21Z</time>
      </trkpt>
      <trkpt lat="44.43741" lon="1.3925">
        <ele>247.7</ele>
        <time>2018-11-25T14:44:27Z</time>
      </trkpt>
      <trkpt lat="44.4375" lon="1.39252">
        <ele>246.6</ele>
        <time>2018-11-25T14:44:33Z</time>
      </trkpt>
      <trkpt lat="44.43754" lon="1.39253">
        <ele>245.2</ele>
        <time>2018-11-25T14:44:39Z</time>
      </trkpt>
      <trkpt lat="44.43759" lon="1.39255">
        <ele>243.4</ele>
        <time>2018-11-25T14:44:44Z</time>
      </trkpt>
      <trkpt lat="44.43766" lon="1.39259">
        <ele>241</ele>
        <time>2018-11-25T14:44:54Z</time>
      </trkpt>
      <trkpt lat="44.43773" lon="1.39263">
        <ele>238.4</ele>
        <time>2018-11-25T14:44:59Z</time>
      </trkpt>
      <trkpt lat="44.43781" lon="1.39264">
        <ele>235.6</ele>
        <time>2018-11-25T14:45:03Z</time>
      </trkpt>
      <trkpt lat="44.43795" lon="1.39253">
        <ele>233.2</ele>
        <time>2018-11-25T14:45:18Z</time>
      </trkpt>
      <trkpt lat="44.438" lon="1.39253">
        <ele>231.4</ele>
        <time>2018-11-25T14:45:23Z</time>
      </trkpt>
      <trkpt lat="44.43806" lon="1.39254">
        <ele>230.3</ele>
        <time>2018-11-25T14:45:29Z</time>
      </trkpt>
      <trkpt lat="44.43807" lon="1.39266">
        <ele>230</ele>
        <time>2018-11-25T14:45:33Z</time>
      </trkpt>
      <trkpt lat="44.43818" lon="1.39268">
        <ele>230.2</ele>
        <time>2018-11-25T14:45:48Z</time>
      </trkpt>
      <trkpt lat="44.43822" lon="1.3926">
        <ele>230.8</ele>
        <time>2018-11-25T14:45:51Z</time>
      </trkpt>
      <trkpt lat="44.43824" lon="1.39255">
        <ele>231.5</ele>
        <time>2018-11-25T14:45:54Z</time>
      </trkpt>
      <trkpt lat="44.43829" lon="1.39252">
        <ele>232.1</ele>
        <time>2018-11-25T14:46:02Z</time>
      </trkpt>
      <trkpt lat="44.43836" lon="1.39255">
        <ele>232.8</ele>
        <time>2018-11-25T14:46:06Z</time>
      </trkpt>
      <trkpt lat="44.43841" lon="1.39259">
        <ele>233.3</ele>
        <time>2018-11-25T14:46:15Z</time>
      </trkpt>
      <trkpt lat="44.43849" lon="1.39261">
        <ele>233.8</ele>
        <time>2018-11-25T14:46:21Z</time>
      </trkpt>
      <trkpt lat="44.43852" lon="1.39256">
        <ele>234</ele>
        <time>2018-11-25T14:46:29Z</time>
      </trkpt>
      <trkpt lat="44.4386" lon="1.39249">
        <ele>233.9</ele>
        <time>2018-11-25T14:46:36Z</time>
      </trkpt>
      <trkpt lat="44.4386" lon="1.39242">
        <ele>233.3</ele>
        <time>2018-11-25T14:46:39Z</time>
      </trkpt>
      <trkpt lat="44.43859" lon="1.39234">
        <ele>232.3</ele>
        <time>2018-11-25T14:46:45Z</time>
      </trkpt>
      <trkpt lat="44.43864" lon="1.39231">
        <ele>230.9</ele>
        <time>2018-11-25T14:46:51Z</time>
      </trkpt>
      <trkpt lat="44.43873" lon="1.39233">
        <ele>229.2</ele>
        <time>2018-11-25T14:46:57Z</time>
      </trkpt>
      <trkpt lat="44.43878" lon="1.39235">
        <ele>227.6</ele>
        <time>2018-11-25T14:47:02Z</time>
      </trkpt>
      <trkpt lat="44.43882" lon="1.39239">
        <ele>226.1</ele>
        <time>2018-11-25T14:47:06Z</time>
      </trkpt>
      <trkpt lat="44.43888" lon="1.39243">
        <ele>224.8</ele>
        <time>2018-11-25T14:47:12Z</time>
      </trkpt>
      <trkpt lat="44.43894" lon="1.39246">
        <ele>223.7</ele>
        <time>2018-11-25T14:47:17Z</time>
      </trkpt>
      <trkpt lat="44.439" lon="1.39241">
        <ele>222.9</ele>
        <time>2018-11-25T14:47:34Z</time>
      </trkpt>
      <trkpt lat="44.43899" lon="1.39233">
        <ele>222.2</ele>
        <time>2018-11-25T14:47:39Z</time>
      </trkpt>
      <trkpt lat="44.43896" lon="1.39221">
        <ele>221.7</ele>
        <time>2018-11-25T14:47:45Z</time>
      </trkpt>
      <trkpt lat="44.43897" lon="1.39214">
        <ele>221.3</ele>
        <time>2018-11-25T14:47:48Z</time>
      </trkpt>
      <trkpt lat="44.43898" lon="1.39205">
        <ele>220.8</ele>
        <time>2018-11-25T14:47:54Z</time>
      </trkpt>
      <trkpt lat="44.43893" lon="1.39199">
        <ele>220.1</ele>
        <time>2018-11-25T14:48:03Z</time>
      </trkpt>
      <trkpt lat="44.4389" lon="1.39193">
        <ele>219.1</ele>
        <time>2018-11-25T14:48:09Z</time>
      </trkpt>
      <trkpt lat="44.43888" lon="1.39188">
        <ele>217.8</ele>
        <time>2018-11-25T14:48:15Z</time>
      </trkpt>
      <trkpt lat="44.43897" lon="1.3919">
        <ele>216.4</ele>
        <time>2018-11-25T14:50:07Z</time>
      </trkpt>
      <trkpt lat="44.43899" lon="1.39201">
        <ele>215.1</ele>
        <time>2018-11-25T14:50:09Z</time>
      </trkpt>
      <trkpt lat="44.43908" lon="1.39209">
        <ele>214.2</ele>
        <time>2018-11-25T14:50:12Z</time>
      </trkpt>
      <trkpt lat="44.43913" lon="1.39217">
        <ele>213.9</ele>
        <time>2018-11-25T14:50:15Z</time>
      </trkpt>
      <trkpt lat="44.43922" lon="1.3922">
        <ele>214.2</ele>
        <time>2018-11-25T14:50:18Z</time>
      </trkpt>
      <trkpt lat="44.43928" lon="1.39209">
        <ele>215.2</ele>
        <time>2018-11-25T14:50:21Z</time>
      </trkpt>
      <trkpt lat="44.43938" lon="1.39214">
        <ele>216.4</ele>
        <time>2018-11-25T14:50:27Z</time>
      </trkpt>
      <trkpt lat="44.43938" lon="1.39221">
        <ele>217.8</ele>
        <time>2018-11-25T14:50:30Z</time>
      </trkpt>
      <trkpt lat="44.43939" lon="1.3923">
        <ele>218.8</ele>
        <time>2018-11-25T14:50:33Z</time>
      </trkpt>
      <trkpt lat="44.43945" lon="1.39234">
        <ele>219.4</ele>
        <time>2018-11-25T14:50:36Z</time>
      </trkpt>
      <trkpt lat="44.43949" lon="1.39241">
        <ele>219.5</ele>
        <time>2018-11-25T14:50:48Z</time>
      </trkpt>
      <trkpt lat="44.43955" lon="1.39246">
        <ele>219.1</ele>
        <time>2018-11-25T14:50:51Z</time>
      </trkpt>
      <trkpt lat="44.43963" lon="1.39249">
        <ele>218.3</ele>
        <time>2018-11-25T14:50:57Z</time>
      </trkpt>
      <trkpt lat="44.43971" lon="1.39253">
        <ele>217.3</ele>
        <time>2018-11-25T14:51:03Z</time>
      </trkpt>
      <trkpt lat="44.43982" lon="1.3925">
        <ele>216.2</ele>
        <time>2018-11-25T14:51:09Z</time>
      </trkpt>
      <trkpt lat="44.43989" lon="1.39252">
        <ele>214.7</ele>
        <time>2018-11-25T14:51:15Z</time>
      </trkpt>
      <trkpt lat="44.43994" lon="1.39253">
        <ele>213</ele>
        <time>2018-11-25T14:51:18Z</time>
      </trkpt>
      <trkpt lat="44.43995" lon="1.39246">
        <ele>211.2</ele>
        <time>2018-11-25T14:51:27Z</time>
      </trkpt>
      <trkpt lat="44.44002" lon="1.39244">
        <ele>209.2</ele>
        <time>2018-11-25T14:51:33Z</time>
      </trkpt>
      <trkpt lat="44.4401" lon="1.39245">
        <ele>207.2</ele>
        <time>2018-11-25T14:51:39Z</time>
      </trkpt>
      <trkpt lat="44.44015" lon="1.39245">
        <ele>205.3</ele>
        <time>2018-11-25T14:51:45Z</time>
      </trkpt>
      <trkpt lat="44.44018" lon="1.3924">
        <ele>203.7</ele>
        <time>2018-11-25T14:51:54Z</time>
      </trkpt>
      <trkpt lat="44.44029" lon="1.39241">
        <ele>202.2</ele>
        <time>2018-11-25T14:52:00Z</time>
      </trkpt>
      <trkpt lat="44.44034" lon="1.39238">
        <ele>200.8</ele>
        <time>2018-11-25T14:52:03Z</time>
      </trkpt>
      <trkpt lat="44.44044" lon="1.39245">
        <ele>199.5</ele>
        <time>2018-11-25T14:52:09Z</time>
      </trkpt>
      <trkpt lat="44.44052" lon="1.39245">
        <ele>198.1</ele>
        <time>2018-11-25T14:52:15Z</time>
      </trkpt>
      <trkpt lat="44.44059" lon="1.39243">
        <ele>196.7</ele>
        <time>2018-11-25T14:52:21Z</time>
      </trkpt>
      <trkpt lat="44.44063" lon="1.39249">
        <ele>195.3</ele>
        <time>2018-11-25T14:52:29Z</time>
      </trkpt>
      <trkpt lat="44.4407" lon="1.3925">
        <ele>193.8</ele>
        <time>2018-11-25T14:52:35Z</time>
      </trkpt>
      <trkpt lat="44.44074" lon="1.39253">
        <ele>192.4</ele>
        <time>2018-11-25T14:52:39Z</time>
      </trkpt>
      <trkpt lat="44.44086" lon="1.39257">
        <ele>191.2</ele>
        <time>2018-11-25T14:52:45Z</time>
      </trkpt>
      <trkpt lat="44.44094" lon="1.39258">
        <ele>190.7</ele>
        <time>2018-11-25T14:52:57Z</time>
      </trkpt>
      <trkpt lat="44.44095" lon="1.39265">
        <ele>190.8</ele>
        <time>2018-11-25T14:53:03Z</time>
      </trkpt>
      <trkpt lat="44.44091" lon="1.3926">
        <ele>191.6</ele>
        <time>2018-11-25T14:53:06Z</time>
      </trkpt>
      <trkpt lat="44.44095" lon="1.39265">
        <ele>193</ele>
        <time>2018-11-25T14:53:12Z</time>
      </trkpt>
      <trkpt lat="44.44101" lon="1.39263">
        <ele>194.6</ele>
        <time>2018-11-25T14:53:15Z</time>
      </trkpt>
      <trkpt lat="44.44107" lon="1.39262">
        <ele>196.1</ele>
        <time>2018-11-25T14:53:18Z</time>
      </trkpt>
      <trkpt lat="44.44113" lon="1.39272">
        <ele>197.3</ele>
        <time>2018-11-25T14:53:24Z</time>
      </trkpt>
      <trkpt lat="44.44127" lon="1.39281">
        <ele>197.9</ele>
        <time>2018-11-25T14:53:33Z</time>
      </trkpt>
      <trkpt lat="44.44131" lon="1.39289">
        <ele>198.1</ele>
        <time>2018-11-25T14:53:39Z</time>
      </trkpt>
      <trkpt lat="44.44142" lon="1.39297">
        <ele>197.9</ele>
        <time>2018-11-25T14:53:45Z</time>
      </trkpt>
      <trkpt lat="44.44148" lon="1.39299">
        <ele>197.5</ele>
        <time>2018-11-25T14:53:51Z</time>
      </trkpt>
      <trkpt lat="44.44162" lon="1.39298">
        <ele>197.2</ele>
        <time>2018-11-25T14:53:57Z</time>
      </trkpt>
      <trkpt lat="44.44169" lon="1.39304">
        <ele>197.3</ele>
        <time>2018-11-25T14:54:00Z</time>
      </trkpt>
      <trkpt lat="44.44168" lon="1.39312">
        <ele>198</ele>
        <time>2018-11-25T14:54:06Z</time>
      </trkpt>
      <trkpt lat="44.44167" lon="1.39318">
        <ele>199</ele>
        <time>2018-11-25T14:54:09Z</time>
      </trkpt>
      <trkpt lat="44.44171" lon="1.39325">
        <ele>200.3</ele>
        <time>2018-11-25T14:54:17Z</time>
      </trkpt>
      <trkpt lat="44.44176" lon="1.39323">
        <ele>201.4</ele>
        <time>2018-11-25T14:54:21Z</time>
      </trkpt>
      <trkpt lat="44.44182" lon="1.3933">
        <ele>202</ele>
        <time>2018-11-25T14:54:27Z</time>
      </trkpt>
      <trkpt lat="44.44187" lon="1.39338">
        <ele>201.7</ele>
        <time>2018-11-25T14:54:33Z</time>
      </trkpt>
      <trkpt lat="44.44194" lon="1.39342">
        <ele>200.5</ele>
        <time>2018-11-25T14:54:39Z</time>
      </trkpt>
      <trkpt lat="44.44198" lon="1.39346">
        <ele>198.8</ele>
        <time>2018-11-25T14:54:44Z</time>
      </trkpt>
      <trkpt lat="44.44203" lon="1.39352">
        <ele>196.9</ele>
        <time>2018-11-25T14:54:48Z</time>
      </trkpt>
      <trkpt lat="44.44203" lon="1.39362">
        <ele>195.4</ele>
        <time>2018-11-25T14:54:54Z</time>
      </trkpt>
      <trkpt lat="44.4421" lon="1.39361">
        <ele>194.5</ele>
        <time>2018-11-25T14:54:57Z</time>
      </trkpt>
      <trkpt lat="44.44215" lon="1.39364">
        <ele>194.5</ele>
        <time>2018-11-25T14:55:03Z</time>
      </trkpt>
      <trkpt lat="44.4422" lon="1.39366">
        <ele>195.3</ele>
        <time>2018-11-25T14:55:09Z</time>
      </trkpt>
      <trkpt lat="44.44232" lon="1.39362">
        <ele>196.7</ele>
        <time>2018-11-25T14:55:12Z</time>
      </trkpt>
      <trkpt lat="44.44235" lon="1.39368">
        <ele>198.3</ele>
        <time>2018-11-25T14:55:27Z</time>
      </trkpt>
      <trkpt lat="44.44242" lon="1.39369">
        <ele>199.8</ele>
        <time>2018-11-25T14:55:33Z</time>
      </trkpt>
      <trkpt lat="44.44247" lon="1.39371">
        <ele>201.1</ele>
        <time>2018-11-25T14:55:39Z</time>
      </trkpt>
      <trkpt lat="44.44258" lon="1.39377">
        <ele>202</ele>
        <time>2018-11-25T14:55:45Z</time>
      </trkpt>
      <trkpt lat="44.44265" lon="1.39379">
        <ele>202.5</ele>
        <time>2018-11-25T14:55:48Z</time>
      </trkpt>
      <trkpt lat="44.44271" lon="1.39383">
        <ele>202.6</ele>
        <time>2018-11-25T14:55:51Z</time>
      </trkpt>
      <trkpt lat="44.44267" lon="1.39388">
        <ele>202.3</ele>
        <time>2018-11-25T14:55:57Z</time>
      </trkpt>
      <trkpt lat="44.44271" lon="1.39394">
        <ele>201.6</ele>
        <time>2018-11-25T14:56:03Z</time>
      </trkpt>
      <trkpt lat="44.44278" lon="1.39394">
        <ele>200.8</ele>
        <time>2018-11-25T14:56:09Z</time>
      </trkpt>
      <trkpt lat="44.44284" lon="1.39391">
        <ele>199.9</ele>
        <time>2018-11-25T14:56:15Z</time>
      </trkpt>
      <trkpt lat="44.44291" lon="1.39393">
        <ele>199</ele>
        <time>2018-11-25T14:56:20Z</time>
      </trkpt>
      <trkpt lat="44.44295" lon="1.39389">
        <ele>198.1</ele>
        <time>2018-11-25T14:56:24Z</time>
      </trkpt>
      <trkpt lat="44.44307" lon="1.39396">
        <ele>197.5</ele>
        <time>2018-11-25T14:56:30Z</time>
      </trkpt>
      <trkpt lat="44.44313" lon="1.39398">
        <ele>197</ele>
        <time>2018-11-25T14:56:36Z</time>
      </trkpt>
      <trkpt lat="44.44325" lon="1.39404">
        <ele>196.6</ele>
        <time>2018-11-25T14:56:42Z</time>
      </trkpt>
      <trkpt lat="44.44336" lon="1.39402">
        <ele>196.4</ele>
        <time>2018-11-25T14:56:51Z</time>
      </trkpt>
      <trkpt lat="44.44341" lon="1.39406">
        <ele>196.1</ele>
        <time>2018-11-25T14:56:57Z</time>
      </trkpt>
      <trkpt lat="44.44347" lon="1.3941">
        <ele>195.8</ele>
        <time>2018-11-25T14:57:05Z</time>
      </trkpt>
      <trkpt lat="44.44354" lon="1.39411">
        <ele>195.3</ele>
        <time>2018-11-25T14:57:12Z</time>
      </trkpt>
      <trkpt lat="44.4436" lon="1.39415">
        <ele>194.7</ele>
        <time>2018-11-25T14:57:18Z</time>
      </trkpt>
      <trkpt lat="44.44364" lon="1.39419">
        <ele>193.9</ele>
        <time>2018-11-25T14:57:29Z</time>
      </trkpt>
      <trkpt lat="44.44371" lon="1.3942">
        <ele>192.8</ele>
        <time>2018-11-25T14:57:33Z</time>
      </trkpt>
      <trkpt lat="44.44378" lon="1.3942">
        <ele>191.7</ele>
        <time>2018-11-25T14:57:39Z</time>
      </trkpt>
      <trkpt lat="44.44384" lon="1.39419">
        <ele>190.8</ele>
        <time>2018-11-25T14:57:42Z</time>
      </trkpt>
      <trkpt lat="44.44394" lon="1.39423">
        <ele>190.1</ele>
        <time>2018-11-25T14:57:48Z</time>
      </trkpt>
      <trkpt lat="44.44389" lon="1.39429">
        <ele>190</ele>
        <time>2018-11-25T14:57:51Z</time>
      </trkpt>
      <trkpt lat="44.44398" lon="1.39432">
        <ele>190.4</ele>
        <time>2018-11-25T14:58:00Z</time>
      </trkpt>
      <trkpt lat="44.44405" lon="1.39431">
        <ele>191.4</ele>
        <time>2018-11-25T14:58:06Z</time>
      </trkpt>
      <trkpt lat="44.44409" lon="1.39438">
        <ele>192.7</ele>
        <time>2018-11-25T14:58:14Z</time>
      </trkpt>
      <trkpt lat="44.44421" lon="1.39433">
        <ele>194.2</ele>
        <time>2018-11-25T14:58:18Z</time>
      </trkpt>
      <trkpt lat="44.44425" lon="1.3943">
        <ele>195.6</ele>
        <time>2018-11-25T14:58:21Z</time>
      </trkpt>
      <trkpt lat="44.44432" lon="1.3943">
        <ele>196.8</ele>
        <time>2018-11-25T14:58:30Z</time>
      </trkpt>
      <trkpt lat="44.44437" lon="1.3943">
        <ele>197.6</ele>
        <time>2018-11-25T14:58:35Z</time>
      </trkpt>
      <trkpt lat="44.44444" lon="1.3943">
        <ele>198</ele>
        <time>2018-11-25T14:58:39Z</time>
      </trkpt>
      <trkpt lat="44.44452" lon="1.39436">
        <ele>198</ele>
        <time>2018-11-25T14:58:45Z</time>
      </trkpt>
      <trkpt lat="44.44461" lon="1.39442">
        <ele>197.6</ele>
        <time>2018-11-25T14:58:51Z</time>
      </trkpt>
      <trkpt lat="44.44469" lon="1.39443">
        <ele>196.8</ele>
        <time>2018-11-25T14:59:03Z</time>
      </trkpt>
      <trkpt lat="44.44476" lon="1.3944">
        <ele>195.7</ele>
        <time>2018-11-25T14:59:06Z</time>
      </trkpt>
      <trkpt lat="44.44483" lon="1.39435">
        <ele>194.5</ele>
        <time>2018-11-25T14:59:12Z</time>
      </trkpt>
      <trkpt lat="44.4449" lon="1.39427">
        <ele>193.3</ele>
        <time>2018-11-25T14:59:21Z</time>
      </trkpt>
      <trkpt lat="44.44494" lon="1.3942">
        <ele>192.1</ele>
        <time>2018-11-25T14:59:26Z</time>
      </trkpt>
      <trkpt lat="44.44501" lon="1.39417">
        <ele>191.2</ele>
        <time>2018-11-25T14:59:40Z</time>
      </trkpt>
      <trkpt lat="44.44513" lon="1.39416">
        <ele>190.5</ele>
        <time>2018-11-25T14:59:45Z</time>
      </trkpt>
      <trkpt lat="44.44521" lon="1.39412">
        <ele>190</ele>
        <time>2018-11-25T14:59:51Z</time>
      </trkpt>
      <trkpt lat="44.44525" lon="1.3941">
        <ele>189.6</ele>
        <time>2018-11-25T14:59:56Z</time>
      </trkpt>
      <trkpt lat="44.44533" lon="1.39407">
        <ele>189.1</ele>
        <time>2018-11-25T15:00:00Z</time>
      </trkpt>
      <trkpt lat="44.44541" lon="1.39405">
        <ele>188.5</ele>
        <time>2018-11-25T15:00:06Z</time>
      </trkpt>
      <trkpt lat="44.44544" lon="1.39398">
        <ele>187.6</ele>
        <time>2018-11-25T15:00:11Z</time>
      </trkpt>
      <trkpt lat="44.44539" lon="1.394">
        <ele>186.6</ele>
        <time>2018-11-25T15:00:15Z</time>
      </trkpt>
      <trkpt lat="44.44548" lon="1.39403">
        <ele>185.5</ele>
        <time>2018-11-25T15:00:21Z</time>
      </trkpt>
      <trkpt lat="44.44562" lon="1.39396">
        <ele>184.7</ele>
        <time>2018-11-25T15:00:27Z</time>
      </trkpt>
      <trkpt lat="44.44567" lon="1.39394">
        <ele>184.1</ele>
        <time>2018-11-25T15:00:29Z</time>
      </trkpt>
      <trkpt lat="44.44572" lon="1.39388">
        <ele>183.8</ele>
        <time>2018-11-25T15:00:33Z</time>
      </trkpt>
      <trkpt lat="44.44578" lon="1.39394">
        <ele>183.8</ele>
        <time>2018-11-25T15:00:48Z</time>
      </trkpt>
      <trkpt lat="44.44589" lon="1.39396">
        <ele>184</ele>
        <time>2018-11-25T15:00:54Z</time>
      </trkpt>
      <trkpt lat="44.44596" lon="1.39398">
        <ele>184.3</ele>
        <time>2018-11-25T15:00:59Z</time>
      </trkpt>
      <trkpt lat="44.44602" lon="1.39396">
        <ele>184.9</ele>
        <time>2018-11-25T15:01:05Z</time>
      </trkpt>
      <trkpt lat="44.44608" lon="1.39393">
        <ele>185.8</ele>
        <time>2018-11-25T15:01:09Z</time>
      </trkpt>
      <trkpt lat="44.44615" lon="1.39393">
        <ele>185.9</ele>
        <time>2018-11-25T15:01:15Z</time>
      </trkpt>
      <trkpt lat="44.44621" lon="1.39392">
        <ele>186.2</ele>
        <time>2018-11-25T15:01:27Z</time>
      </trkpt>
      <trkpt lat="44.44624" lon="1.39386">
        <ele>187.1</ele>
        <time>2018-11-25T15:01:33Z</time>
      </trkpt>
      <trkpt lat="44.44627" lon="1.39381">
        <ele>189.5</ele>
        <time>2018-11-25T15:01:36Z</time>
      </trkpt>
      <trkpt lat="44.44627" lon="1.39373">
        <ele>191.4</ele>
        <time>2018-11-25T15:01:42Z</time>
      </trkpt>
      <trkpt lat="44.44627" lon="1.39366">
        <ele>193.8</ele>
        <time>2018-11-25T15:01:47Z</time>
      </trkpt>
      <trkpt lat="44.44628" lon="1.39359">
        <ele>195.5</ele>
        <time>2018-11-25T15:01:53Z</time>
      </trkpt>
      <trkpt lat="44.44627" lon="1.39352">
        <ele>196.8</ele>
        <time>2018-11-25T15:02:37Z</time>
      </trkpt>
      <trkpt lat="44.44624" lon="1.39346">
        <ele>196.7</ele>
        <time>2018-11-25T15:03:22Z</time>
      </trkpt>
      <trkpt lat="44.44617" lon="1.39346">
        <ele>197</ele>
        <time>2018-11-25T15:03:30Z</time>
      </trkpt>
      <trkpt lat="44.44609" lon="1.39342">
        <ele>198.4</ele>
        <time>2018-11-25T15:03:36Z</time>
      </trkpt>
      <trkpt lat="44.44601" lon="1.39333">
        <ele>200.2</ele>
        <time>2018-11-25T15:03:42Z</time>
      </trkpt>
      <trkpt lat="44.44598" lon="1.39325">
        <ele>202.6</ele>
        <time>2018-11-25T15:03:48Z</time>
      </trkpt>
      <trkpt lat="44.44593" lon="1.39321">
        <ele>204.1</ele>
        <time>2018-11-25T15:03:57Z</time>
      </trkpt>
      <trkpt lat="44.44586" lon="1.39318">
        <ele>203.8</ele>
        <time>2018-11-25T15:04:03Z</time>
      </trkpt>
      <trkpt lat="44.44585" lon="1.39309">
        <ele>202.2</ele>
        <time>2018-11-25T15:04:09Z</time>
      </trkpt>
      <trkpt lat="44.44578" lon="1.39309">
        <ele>202.4</ele>
        <time>2018-11-25T15:04:18Z</time>
      </trkpt>
      <trkpt lat="44.44572" lon="1.39291">
        <ele>202.1</ele>
        <time>2018-11-25T15:04:24Z</time>
      </trkpt>
      <trkpt lat="44.4457" lon="1.39299">
        <ele>201.9</ele>
        <time>2018-11-25T15:04:33Z</time>
      </trkpt>
      <trkpt lat="44.4457" lon="1.39292">
        <ele>203</ele>
        <time>2018-11-25T15:04:45Z</time>
      </trkpt>
      <trkpt lat="44.44565" lon="1.39293">
        <ele>204.4</ele>
        <time>2018-11-25T15:04:57Z</time>
      </trkpt>
      <trkpt lat="44.44559" lon="1.39292">
        <ele>203.7</ele>
        <time>2018-11-25T15:05:05Z</time>
      </trkpt>
      <trkpt lat="44.44563" lon="1.39287">
        <ele>204</ele>
        <time>2018-11-25T15:05:11Z</time>
      </trkpt>
      <trkpt lat="44.44558" lon="1.39282">
        <ele>205.2</ele>
        <time>2018-11-25T15:05:21Z</time>
      </trkpt>
      <trkpt lat="44.4455" lon="1.39287">
        <ele>206.8</ele>
        <time>2018-11-25T15:05:24Z</time>
      </trkpt>
      <trkpt lat="44.44546" lon="1.39284">
        <ele>209.3</ele>
        <time>2018-11-25T15:05:36Z</time>
      </trkpt>
      <trkpt lat="44.44539" lon="1.39275">
        <ele>211.1</ele>
        <time>2018-11-25T15:06:04Z</time>
      </trkpt>
      <trkpt lat="44.44532" lon="1.3926">
        <ele>211.2</ele>
        <time>2018-11-25T15:06:15Z</time>
      </trkpt>
      <trkpt lat="44.44536" lon="1.39254">
        <ele>210.8</ele>
        <time>2018-11-25T15:06:18Z</time>
      </trkpt>
      <trkpt lat="44.4454" lon="1.39251">
        <ele>211.1</ele>
        <time>2018-11-25T15:06:23Z</time>
      </trkpt>
      <trkpt lat="44.44544" lon="1.39246">
        <ele>211.7</ele>
        <time>2018-11-25T15:06:29Z</time>
      </trkpt>
      <trkpt lat="44.44537" lon="1.3924">
        <ele>214.1</ele>
        <time>2018-11-25T15:06:33Z</time>
      </trkpt>
      <trkpt lat="44.44531" lon="1.39242">
        <ele>218.2</ele>
        <time>2018-11-25T15:06:39Z</time>
      </trkpt>
      <trkpt lat="44.44524" lon="1.39237">
        <ele>223.1</ele>
        <time>2018-11-25T15:06:48Z</time>
      </trkpt>
      <trkpt lat="44.44521" lon="1.39232">
        <ele>227.2</ele>
        <time>2018-11-25T15:06:54Z</time>
      </trkpt>
      <trkpt lat="44.44516" lon="1.39229">
        <ele>229.9</ele>
        <time>2018-11-25T15:07:00Z</time>
      </trkpt>
      <trkpt lat="44.4451" lon="1.39231">
        <ele>231.3</ele>
        <time>2018-11-25T15:07:09Z</time>
      </trkpt>
      <trkpt lat="44.44508" lon="1.39217">
        <ele>231.8</ele>
        <time>2018-11-25T15:07:15Z</time>
      </trkpt>
      <trkpt lat="44.44507" lon="1.3921">
        <ele>230.8</ele>
        <time>2018-11-25T15:07:21Z</time>
      </trkpt>
      <trkpt lat="44.44508" lon="1.39203">
        <ele>229.7</ele>
        <time>2018-11-25T15:07:27Z</time>
      </trkpt>
      <trkpt lat="44.44505" lon="1.39198">
        <ele>228.1</ele>
        <time>2018-11-25T15:07:33Z</time>
      </trkpt>
      <trkpt lat="44.445" lon="1.39196">
        <ele>227</ele>
        <time>2018-11-25T15:07:41Z</time>
      </trkpt>
      <trkpt lat="44.44496" lon="1.39193">
        <ele>225.6</ele>
        <time>2018-11-25T15:07:50Z</time>
      </trkpt>
      <trkpt lat="44.4449" lon="1.39191">
        <ele>225.7</ele>
        <time>2018-11-25T15:08:02Z</time>
      </trkpt>
      <trkpt lat="44.44486" lon="1.39181">
        <ele>226.1</ele>
        <time>2018-11-25T15:08:15Z</time>
      </trkpt>
      <trkpt lat="44.44478" lon="1.39175">
        <ele>228.1</ele>
        <time>2018-11-25T15:08:21Z</time>
      </trkpt>
      <trkpt lat="44.44474" lon="1.39173">
        <ele>230.1</ele>
        <time>2018-11-25T15:08:26Z</time>
      </trkpt>
      <trkpt lat="44.4448" lon="1.39168">
        <ele>232.1</ele>
        <time>2018-11-25T15:08:33Z</time>
      </trkpt>
      <trkpt lat="44.44477" lon="1.39163">
        <ele>233.7</ele>
        <time>2018-11-25T15:08:41Z</time>
      </trkpt>
      <trkpt lat="44.44473" lon="1.39156">
        <ele>234.3</ele>
        <time>2018-11-25T15:08:45Z</time>
      </trkpt>
      <trkpt lat="44.44478" lon="1.39146">
        <ele>234.3</ele>
        <time>2018-11-25T15:08:51Z</time>
      </trkpt>
      <trkpt lat="44.44479" lon="1.3914">
        <ele>234.4</ele>
        <time>2018-11-25T15:08:54Z</time>
      </trkpt>
      <trkpt lat="44.44476" lon="1.39131">
        <ele>235.2</ele>
        <time>2018-11-25T15:09:00Z</time>
      </trkpt>
      <trkpt lat="44.4448" lon="1.39126">
        <ele>235.3</ele>
        <time>2018-11-25T15:09:09Z</time>
      </trkpt>
      <trkpt lat="44.44473" lon="1.39112">
        <ele>235.2</ele>
        <time>2018-11-25T15:09:15Z</time>
      </trkpt>
      <trkpt lat="44.4447" lon="1.39105">
        <ele>235.5</ele>
        <time>2018-11-25T15:09:17Z</time>
      </trkpt>
      <trkpt lat="44.44471" lon="1.39099">
        <ele>236.5</ele>
        <time>2018-11-25T15:09:23Z</time>
      </trkpt>
      <trkpt lat="44.44463" lon="1.39098">
        <ele>237.8</ele>
        <time>2018-11-25T15:09:27Z</time>
      </trkpt>
      <trkpt lat="44.44454" lon="1.39092">
        <ele>239.7</ele>
        <time>2018-11-25T15:10:04Z</time>
      </trkpt>
      <trkpt lat="44.44438" lon="1.39083">
        <ele>242.3</ele>
        <time>2018-11-25T15:10:09Z</time>
      </trkpt>
      <trkpt lat="44.4443" lon="1.39082">
        <ele>244.2</ele>
        <time>2018-11-25T15:10:15Z</time>
      </trkpt>
      <trkpt lat="44.44423" lon="1.39076">
        <ele>246.2</ele>
        <time>2018-11-25T15:10:21Z</time>
      </trkpt>
      <trkpt lat="44.4442" lon="1.3907">
        <ele>248.1</ele>
        <time>2018-11-25T15:10:27Z</time>
      </trkpt>
      <trkpt lat="44.44416" lon="1.39064">
        <ele>250.3</ele>
        <time>2018-11-25T15:10:33Z</time>
      </trkpt>
      <trkpt lat="44.44411" lon="1.39062">
        <ele>252.1</ele>
        <time>2018-11-25T15:10:41Z</time>
      </trkpt>
      <trkpt lat="44.44408" lon="1.3905">
        <ele>253.5</ele>
        <time>2018-11-25T15:10:54Z</time>
      </trkpt>
      <trkpt lat="44.44401" lon="1.39043">
        <ele>253.7</ele>
        <time>2018-11-25T15:11:00Z</time>
      </trkpt>
      <trkpt lat="44.44397" lon="1.39047">
        <ele>253.3</ele>
        <time>2018-11-25T15:11:06Z</time>
      </trkpt>
      <trkpt lat="44.44392" lon="1.39043">
        <ele>252.8</ele>
        <time>2018-11-25T15:11:14Z</time>
      </trkpt>
      <trkpt lat="44.44387" lon="1.39041">
        <ele>252.1</ele>
        <time>2018-11-25T15:11:18Z</time>
      </trkpt>
      <trkpt lat="44.44382" lon="1.39038">
        <ele>251.1</ele>
        <time>2018-11-25T15:11:30Z</time>
      </trkpt>
      <trkpt lat="44.44376" lon="1.39039">
        <ele>250.4</ele>
        <time>2018-11-25T15:11:39Z</time>
      </trkpt>
      <trkpt lat="44.44371" lon="1.39036">
        <ele>249</ele>
        <time>2018-11-25T15:11:44Z</time>
      </trkpt>
      <trkpt lat="44.44367" lon="1.39032">
        <ele>246.6</ele>
        <time>2018-11-25T15:11:48Z</time>
      </trkpt>
      <trkpt lat="44.44363" lon="1.39025">
        <ele>245.4</ele>
        <time>2018-11-25T15:11:56Z</time>
      </trkpt>
      <trkpt lat="44.44361" lon="1.39019">
        <ele>246.4</ele>
        <time>2018-11-25T15:12:02Z</time>
      </trkpt>
      <trkpt lat="44.44366" lon="1.39019">
        <ele>247.3</ele>
        <time>2018-11-25T15:12:06Z</time>
      </trkpt>
      <trkpt lat="44.44358" lon="1.39015">
        <ele>247.9</ele>
        <time>2018-11-25T15:12:15Z</time>
      </trkpt>
      <trkpt lat="44.44353" lon="1.39014">
        <ele>249.3</ele>
        <time>2018-11-25T15:12:21Z</time>
      </trkpt>
      <trkpt lat="44.44349" lon="1.39011">
        <ele>249.4</ele>
        <time>2018-11-25T15:12:49Z</time>
      </trkpt>
      <trkpt lat="44.44347" lon="1.39005">
        <ele>247.8</ele>
        <time>2018-11-25T15:13:49Z</time>
      </trkpt>
      <trkpt lat="44.44343" lon="1.38998">
        <ele>246.6</ele>
        <time>2018-11-25T15:15:04Z</time>
      </trkpt>
      <trkpt lat="44.44344" lon="1.38986">
        <ele>246.9</ele>
        <time>2018-11-25T15:15:06Z</time>
      </trkpt>
      <trkpt lat="44.44346" lon="1.38978">
        <ele>247.7</ele>
        <time>2018-11-25T15:15:09Z</time>
      </trkpt>
      <trkpt lat="44.44347" lon="1.38971">
        <ele>249.3</ele>
        <time>2018-11-25T15:15:12Z</time>
      </trkpt>
      <trkpt lat="44.44351" lon="1.38966">
        <ele>252</ele>
        <time>2018-11-25T15:15:15Z</time>
      </trkpt>
      <trkpt lat="44.44356" lon="1.38958">
        <ele>255.6</ele>
        <time>2018-11-25T15:15:21Z</time>
      </trkpt>
      <trkpt lat="44.44352" lon="1.38953">
        <ele>258.4</ele>
        <time>2018-11-25T15:15:26Z</time>
      </trkpt>
      <trkpt lat="44.44344" lon="1.38949">
        <ele>260.5</ele>
        <time>2018-11-25T15:15:30Z</time>
      </trkpt>
      <trkpt lat="44.44339" lon="1.38949">
        <ele>262.1</ele>
        <time>2018-11-25T15:15:36Z</time>
      </trkpt>
      <trkpt lat="44.4433" lon="1.38953">
        <ele>263.7</ele>
        <time>2018-11-25T15:15:48Z</time>
      </trkpt>
      <trkpt lat="44.44325" lon="1.38953">
        <ele>264.3</ele>
        <time>2018-11-25T15:15:54Z</time>
      </trkpt>
      <trkpt lat="44.4432" lon="1.38959">
        <ele>263.6</ele>
        <time>2018-11-25T15:16:00Z</time>
      </trkpt>
      <trkpt lat="44.44316" lon="1.38955">
        <ele>263.1</ele>
        <time>2018-11-25T15:16:06Z</time>
      </trkpt>
      <trkpt lat="44.44309" lon="1.38954">
        <ele>262.8</ele>
        <time>2018-11-25T15:16:12Z</time>
      </trkpt>
      <trkpt lat="44.44303" lon="1.38957">
        <ele>261.7</ele>
        <time>2018-11-25T15:16:18Z</time>
      </trkpt>
      <trkpt lat="44.44295" lon="1.38956">
        <ele>260.2</ele>
        <time>2018-11-25T15:16:27Z</time>
      </trkpt>
      <trkpt lat="44.44292" lon="1.38963">
        <ele>260.2</ele>
        <time>2018-11-25T15:16:33Z</time>
      </trkpt>
      <trkpt lat="44.44287" lon="1.38962">
        <ele>260.8</ele>
        <time>2018-11-25T15:16:36Z</time>
      </trkpt>
      <trkpt lat="44.44283" lon="1.38967">
        <ele>262.5</ele>
        <time>2018-11-25T15:16:42Z</time>
      </trkpt>
      <trkpt lat="44.44279" lon="1.38967">
        <ele>264.9</ele>
        <time>2018-11-25T15:16:47Z</time>
      </trkpt>
      <trkpt lat="44.44278" lon="1.38974">
        <ele>267.9</ele>
        <time>2018-11-25T15:16:51Z</time>
      </trkpt>
      <trkpt lat="44.4427" lon="1.38977">
        <ele>268.9</ele>
        <time>2018-11-25T15:16:57Z</time>
      </trkpt>
      <trkpt lat="44.44266" lon="1.38982">
        <ele>268.8</ele>
        <time>2018-11-25T15:17:05Z</time>
      </trkpt>
      <trkpt lat="44.44258" lon="1.38985">
        <ele>267.5</ele>
        <time>2018-11-25T15:17:15Z</time>
      </trkpt>
      <trkpt lat="44.44248" lon="1.38994">
        <ele>265.6</ele>
        <time>2018-11-25T15:17:24Z</time>
      </trkpt>
      <trkpt lat="44.44247" lon="1.38984">
        <ele>263.3</ele>
        <time>2018-11-25T15:17:36Z</time>
      </trkpt>
      <trkpt lat="44.44242" lon="1.38987">
        <ele>262.4</ele>
        <time>2018-11-25T15:17:42Z</time>
      </trkpt>
      <trkpt lat="44.44237" lon="1.38988">
        <ele>261.9</ele>
        <time>2018-11-25T15:17:48Z</time>
      </trkpt>
      <trkpt lat="44.44231" lon="1.38988">
        <ele>262.4</ele>
        <time>2018-11-25T15:17:54Z</time>
      </trkpt>
      <trkpt lat="44.44229" lon="1.38995">
        <ele>263.3</ele>
        <time>2018-11-25T15:18:00Z</time>
      </trkpt>
      <trkpt lat="44.44222" lon="1.38997">
        <ele>264.3</ele>
        <time>2018-11-25T15:18:06Z</time>
      </trkpt>
      <trkpt lat="44.44214" lon="1.38997">
        <ele>265.5</ele>
        <time>2018-11-25T15:18:12Z</time>
      </trkpt>
      <trkpt lat="44.44206" lon="1.38995">
        <ele>267.3</ele>
        <time>2018-11-25T15:18:18Z</time>
      </trkpt>
      <trkpt lat="44.44199" lon="1.38992">
        <ele>268.8</ele>
        <time>2018-11-25T15:18:23Z</time>
      </trkpt>
      <trkpt lat="44.44195" lon="1.38986">
        <ele>269.7</ele>
        <time>2018-11-25T15:18:29Z</time>
      </trkpt>
      <trkpt lat="44.44193" lon="1.3898">
        <ele>271.2</ele>
        <time>2018-11-25T15:18:35Z</time>
      </trkpt>
      <trkpt lat="44.44188" lon="1.38976">
        <ele>273</ele>
        <time>2018-11-25T15:18:39Z</time>
      </trkpt>
      <trkpt lat="44.44182" lon="1.38976">
        <ele>274.8</ele>
        <time>2018-11-25T15:18:45Z</time>
      </trkpt>
      <trkpt lat="44.44178" lon="1.38972">
        <ele>276.5</ele>
        <time>2018-11-25T15:18:51Z</time>
      </trkpt>
      <trkpt lat="44.44173" lon="1.38965">
        <ele>275.1</ele>
        <time>2018-11-25T15:18:57Z</time>
      </trkpt>
      <trkpt lat="44.4417" lon="1.3896">
        <ele>276.5</ele>
        <time>2018-11-25T15:19:00Z</time>
      </trkpt>
      <trkpt lat="44.44166" lon="1.38954">
        <ele>279.1</ele>
        <time>2018-11-25T15:19:06Z</time>
      </trkpt>
      <trkpt lat="44.44161" lon="1.38952">
        <ele>280.2</ele>
        <time>2018-11-25T15:19:24Z</time>
      </trkpt>
    </trkseg>
  </trk>
</gpx>